Time,TemperatureF,DewpointF,PressureIn,WindDirection,WindDirectionDegrees,WindSpeedMPH,WindSpeedGustMPH,Humidity,HourlyPrecipIn,Conditions,Clouds,dailyrainin,SoftwareType,DateUTC
2013-07-08 00:01:00,81.5,47.9,29.71,North,0,12.7,12.7,31,0.00,CLR,,0.00,WeatherDisplay:10.37,2013-07-07 21:01:00,
2013-07-08 00:03:00,81.5,47.9,29.71,NNW,338,8.1,8.1,31,0.00,CLR,,0.00,WeatherDisplay:10.37,2013-07-07 21:03:00,
2013-07-08 00:04:00,81.5,47.9,29.71,North,0,9.2,9.2,31,0.00,CLR,,0.00,WeatherDisplay:10.37,2013-07-07 21:04:00,
2013-07-08 00:07:00,81.3,47.8,29.71,NNE,22,5.8,6.7,31,0.00,CLR,,0.00,WeatherDisplay:10.37,2013-07-07 21:07:00,
2013-07-08 00:08:00,81.3,47.8,29.71,NNW,338,5.8,6.7,31,0.00,CLR,,0.00,WeatherDisplay:10.37,2013-07-07 21:08:00,
2013-07-08 00:09:00,81.3,47.8,29.71,NNW,338,9.2,9.2,31,0.00,CLR,,0.00,WeatherDisplay:10.37,2013-07-07 21:09:00,
2013-07-08 00:10:00,81.3,47.8,29.71,NNW,338,5.9,5.9,31,0.00,CLR,,0.00,WeatherDisplay:10.37,2013-07-07 21:10:00,
2013-07-08 00:12:00,81.3,47.8,29.71,ENE,68,12.7,12.7,31,0.00,CLR,,0.00,WeatherDisplay:10.37,2013-07-07 21:12:00,
2013-07-08 00:13:00,81.3,47.8,29.71,NNE,22,10.5,10.5,31,0.00,CLR,,0.00,WeatherDisplay:10.37,2013-07-07 21:13:00,
2013-07-08 00:14:00,81.3,47.8,29.71,NNW,338,10.4,10.4,31,0.00,CLR,,0.00,WeatherDisplay:10.37,2013-07-07 21:14:00,
2013-07-08 00:15:00,81.3,47.8,29.71,North,0,12.8,12.8,31,0.00,CLR,,0.00,WeatherDisplay:10.37,2013-07-07 21:15:00,
2013-07-08 00:18:00,81.3,47.8,29.71,NNW,338,10.4,10.4,31,0.00,CLR,,0.00,WeatherDisplay:10.37,2013-07-07 21:18:00,
2013-07-08 00:19:00,81.3,47.8,29.71,NNW,338,9.2,9.2,31,0.00,CLR,,0.00,WeatherDisplay:10.37,2013-07-07 21:19:00,
2013-07-08 00:20:00,81.3,47.8,29.71,North,0,10.5,10.5,31,0.00,CLR,,0.00,WeatherDisplay:10.37,2013-07-07 21:20:00,
2013-07-08 00:23:00,81.3,47.8,29.71,NNE,22,10.2,10.2,31,0.00,CLR,,0.00,WeatherDisplay:10.37,2013-07-07 21:23:00,
2013-07-08 00:24:00,81.3,47.8,29.71,NNE,22,10.4,10.4,31,0.00,CLR,,0.00,WeatherDisplay:10.37,2013-07-07 21:24:00,
2013-07-08 00:25:00,81.3,47.8,29.71,NNW,338,10.4,10.4,31,0.00,CLR,,0.00,WeatherDisplay:10.37,2013-07-07 21:25:00,
2013-07-08 00:28:00,81.3,47.8,29.71,NNW,338,12.7,12.7,31,0.00,CLR,,0.00,WeatherDisplay:10.37,2013-07-07 21:28:00,
2013-07-08 00:29:00,81.3,47.8,29.71,North,0,11.5,11.5,31,0.00,CLR,,0.00,WeatherDisplay:10.37,2013-07-07 21:29:00,
2013-07-08 00:30:00,81.3,47.8,29.71,NNE,22,11.5,11.5,31,0.00,CLR,,0.00,WeatherDisplay:10.37,2013-07-07 21:30:00,
2013-07-08 00:31:00,81.3,47.8,29.71,North,0,10.4,10.4,31,0.00,CLR,,0.00,WeatherDisplay:10.37,2013-07-07 21:31:00,
2013-07-08 00:33:00,81.1,47.6,29.71,North,0,11.5,11.5,31,0.00,CLR,,0.00,WeatherDisplay:10.37,2013-07-07 21:33:00,
2013-07-08 00:34:00,81.1,47.6,29.71,NNW,338,11.5,11.5,31,0.00,CLR,,0.00,WeatherDisplay:10.37,2013-07-07 21:34:00,
2013-07-08 00:35:00,81.1,47.6,29.71,North,0,6.9,6.9,31,0.00,CLR,,0.00,WeatherDisplay:10.37,2013-07-07 21:35:00,
2013-07-08 00:36:00,81.1,47.6,29.71,NNW,338,9.2,9.2,31,0.00,CLR,,0.00,WeatherDisplay:10.37,2013-07-07 21:36:00,
2013-07-08 00:38:00,81.1,47.6,29.71,NNE,22,6.9,6.9,31,0.00,CLR,,0.00,WeatherDisplay:10.37,2013-07-07 21:38:00,
2013-07-08 00:39:00,81.0,47.5,29.71,NNW,338,6.9,6.9,31,0.00,CLR,,0.00,WeatherDisplay:10.37,2013-07-07 21:39:00,
2013-07-08 00:40:00,81.0,47.5,29.71,NNW,338,6.9,6.9,31,0.00,CLR,,0.00,WeatherDisplay:10.37,2013-07-07 21:40:00,
2013-07-08 00:41:00,81.0,47.5,29.71,NNE,22,8.1,8.1,31,0.00,CLR,,0.00,WeatherDisplay:10.37,2013-07-07 21:41:00,
2013-07-08 00:43:00,81.0,47.5,29.71,NNW,338,9.2,9.2,31,0.00,CLR,,0.00,WeatherDisplay:10.37,2013-07-07 21:43:00,
2013-07-08 00:44:00,81.0,47.5,29.71,NNE,22,6.9,6.9,31,0.00,CLR,,0.00,WeatherDisplay:10.37,2013-07-07 21:44:00,
2013-07-08 00:45:00,81.0,47.5,29.71,NNE,22,6.9,6.9,31,0.00,CLR,,0.00,WeatherDisplay:10.37,2013-07-07 21:45:00,
2013-07-08 00:46:00,81.0,47.5,29.71,NNE,22,13.8,13.8,31,0.00,CLR,,0.00,WeatherDisplay:10.37,2013-07-07 21:46:00,
2013-07-08 00:49:00,81.0,47.5,29.71,NNW,338,5.9,5.9,31,0.00,CLR,,0.00,WeatherDisplay:10.37,2013-07-07 21:49:00,
2013-07-08 00:50:00,81.0,47.5,29.71,North,0,5.8,5.8,31,0.00,CLR,,0.00,WeatherDisplay:10.37,2013-07-07 21:50:00,
2013-07-08 00:51:00,81.0,47.5,29.71,NNW,338,6.0,6.0,31,0.00,CLR,,0.00,WeatherDisplay:10.37,2013-07-07 21:51:00,
2013-07-08 00:54:00,80.8,47.3,29.71,North,0,6.9,6.9,31,0.00,CLR,,0.00,WeatherDisplay:10.37,2013-07-07 21:54:00,
2013-07-08 00:55:00,80.8,47.3,29.71,NNW,338,6.9,6.9,31,0.00,CLR,,0.00,WeatherDisplay:10.37,2013-07-07 21:55:00,
2013-07-08 00:56:00,80.8,47.3,29.71,WNW,292,4.6,4.6,31,0.00,CLR,,0.00,WeatherDisplay:10.37,2013-07-07 21:56:00,
2013-07-08 00:59:00,80.8,47.3,29.71,NNE,22,11.5,11.5,31,0.00,CLR,,0.00,WeatherDisplay:10.37,2013-07-07 21:59:00,
2013-07-08 01:00:00,80.8,47.3,29.71,NNW,338,11.5,11.5,31,0.00,CLR,,0.00,WeatherDisplay:10.37,2013-07-07 22:00:00,
2013-07-08 01:02:00,80.8,47.3,29.71,NNW,338,6.9,6.9,31,0.00,CLR,,0.00,WeatherDisplay:10.37,2013-07-07 22:02:00,
2013-07-08 01:04:00,80.6,47.2,29.71,NNW,338,5.8,5.8,31,0.00,CLR,,0.00,WeatherDisplay:10.37,2013-07-07 22:04:00,
2013-07-08 01:05:00,80.6,47.2,29.71,NNW,338,3.5,3.5,31,0.00,CLR,,0.00,WeatherDisplay:10.37,2013-07-07 22:05:00,
2013-07-08 01:06:00,80.6,47.2,29.71,NNW,338,6.9,6.9,31,0.00,CLR,,0.00,WeatherDisplay:10.37,2013-07-07 22:06:00,
2013-07-08 01:07:00,80.6,47.2,29.71,NNW,338,6.9,6.9,31,0.00,CLR,,0.00,WeatherDisplay:10.37,2013-07-07 22:07:00,
2013-07-08 01:09:00,80.4,47.9,29.74,NNE,22,6.9,6.9,32,0.00,CLR,,0.00,WeatherDisplay:10.37,2013-07-07 22:09:00,
2013-07-08 01:10:00,80.4,47.9,29.74,North,0,5.8,5.8,32,0.00,CLR,,0.00,WeatherDisplay:10.37,2013-07-07 22:10:00,
2013-07-08 01:11:00,80.4,47.9,29.74,NNW,338,5.8,5.8,32,0.00,CLR,,0.00,WeatherDisplay:10.37,2013-07-07 22:11:00,
2013-07-08 01:12:00,80.4,47.9,29.74,North,0,6.0,6.0,32,0.00,CLR,,0.00,WeatherDisplay:10.37,2013-07-07 22:12:00,
2013-07-08 01:14:00,80.4,47.9,29.74,NNW,338,6.9,6.9,32,0.00,CLR,,0.00,WeatherDisplay:10.37,2013-07-07 22:14:00,
2013-07-08 01:15:00,80.4,47.9,29.74,NNW,338,6.9,6.9,32,0.00,CLR,,0.00,WeatherDisplay:10.37,2013-07-07 22:15:00,
2013-07-08 01:16:00,80.4,47.9,29.74,North,0,6.9,6.9,32,0.00,CLR,,0.00,WeatherDisplay:10.37,2013-07-07 22:16:00,
2013-07-08 01:17:00,80.4,47.9,29.74,NNW,338,5.8,5.8,32,0.00,CLR,,0.00,WeatherDisplay:10.37,2013-07-07 22:17:00,
2013-07-08 01:20:00,80.4,47.9,29.74,NNW,338,5.8,5.8,32,0.00,CLR,,0.00,WeatherDisplay:10.37,2013-07-07 22:20:00,
2013-07-08 01:21:00,80.4,47.9,29.74,North,0,8.5,8.5,32,0.00,CLR,,0.00,WeatherDisplay:10.37,2013-07-07 22:21:00,
2013-07-08 01:22:00,80.4,47.9,29.74,NNE,22,9.2,9.2,32,0.00,CLR,,0.00,WeatherDisplay:10.37,2013-07-07 22:22:00,
2013-07-08 01:25:00,80.4,47.9,29.71,NNE,22,6.9,6.9,32,0.00,CLR,,0.00,WeatherDisplay:10.37,2013-07-07 22:25:00,
2013-07-08 01:26:00,80.2,47.7,29.71,NNW,338,8.1,8.1,32,0.00,CLR,,0.00,WeatherDisplay:10.37,2013-07-07 22:26:00,
2013-07-08 01:27:00,80.2,47.7,29.71,NNW,338,6.9,6.9,32,0.00,CLR,,0.00,WeatherDisplay:10.37,2013-07-07 22:27:00,
2013-07-08 01:30:00,80.2,47.7,29.71,NNE,22,5.9,5.9,32,0.00,CLR,,0.00,WeatherDisplay:10.37,2013-07-07 22:30:00,
2013-07-08 01:31:00,80.2,47.7,29.71,NW,315,9.2,9.2,32,0.00,CLR,,0.00,WeatherDisplay:10.37,2013-07-07 22:31:00,
2013-07-08 01:33:00,80.2,47.7,29.71,NNW,338,8.1,8.1,32,0.00,CLR,,0.00,WeatherDisplay:10.37,2013-07-07 22:33:00,
2013-07-08 01:35:00,80.2,47.7,29.71,NNW,338,11.5,11.5,32,0.00,CLR,,0.00,WeatherDisplay:10.37,2013-07-07 22:35:00,
2013-07-08 01:36:00,80.2,47.7,29.71,NNW,338,10.4,10.4,32,0.00,CLR,,0.00,WeatherDisplay:10.37,2013-07-07 22:36:00,
2013-07-08 01:37:00,80.2,47.7,29.71,NNW,338,10.4,10.4,32,0.00,CLR,,0.00,WeatherDisplay:10.37,2013-07-07 22:37:00,
2013-07-08 01:38:00,80.2,47.7,29.74,North,0,5.8,5.8,32,0.00,CLR,,0.00,WeatherDisplay:10.37,2013-07-07 22:38:00,
2013-07-08 01:40:00,80.2,47.7,29.74,ENE,68,9.2,9.2,32,0.00,CLR,,0.00,WeatherDisplay:10.37,2013-07-07 22:40:00,
2013-07-08 01:41:00,80.2,47.7,29.74,NNE,22,9.2,9.2,32,0.00,CLR,,0.00,WeatherDisplay:10.37,2013-07-07 22:41:00,
2013-07-08 01:42:00,80.2,47.7,29.74,NNW,338,8.1,8.1,32,0.00,CLR,,0.00,WeatherDisplay:10.37,2013-07-07 22:42:00,
2013-07-08 01:43:00,80.1,47.5,29.74,NNE,22,8.1,8.1,32,0.00,CLR,,0.00,WeatherDisplay:10.37,2013-07-07 22:43:00,
2013-07-08 01:45:00,80.1,47.5,29.74,NNE,22,6.9,6.9,32,0.00,CLR,,0.00,WeatherDisplay:10.37,2013-07-07 22:45:00,
2013-07-08 01:46:00,80.2,47.7,29.74,NW,315,10.4,10.4,32,0.00,CLR,,0.00,WeatherDisplay:10.37,2013-07-07 22:46:00,
2013-07-08 01:47:00,80.2,47.7,29.74,NNE,22,5.8,5.8,32,0.00,CLR,,0.00,WeatherDisplay:10.37,2013-07-07 22:47:00,
2013-07-08 01:48:00,80.2,47.7,29.74,North,0,12.5,12.5,32,0.00,CLR,,0.00,WeatherDisplay:10.37,2013-07-07 22:48:00,
2013-07-08 01:51:00,80.2,47.7,29.74,NNW,338,9.2,9.2,32,0.00,CLR,,0.00,WeatherDisplay:10.37,2013-07-07 22:51:00,
2013-07-08 01:52:00,80.2,47.7,29.74,NNE,22,8.1,8.1,32,0.00,CLR,,0.00,WeatherDisplay:10.37,2013-07-07 22:52:00,
2013-07-08 01:53:00,80.2,47.7,29.71,NNW,338,8.1,8.1,32,0.00,CLR,,0.00,WeatherDisplay:10.37,2013-07-07 22:53:00,
2013-07-08 01:56:00,80.1,47.5,29.71,North,0,8.1,8.1,32,0.00,CLR,,0.00,WeatherDisplay:10.37,2013-07-07 22:56:00,
2013-07-08 01:57:00,80.1,47.5,29.71,NNW,338,8.1,8.1,32,0.00,CLR,,0.00,WeatherDisplay:10.37,2013-07-07 22:57:00,
2013-07-08 01:59:00,80.1,47.5,29.71,NNW,338,9.2,9.2,32,0.00,CLR,,0.00,WeatherDisplay:10.37,2013-07-07 22:59:00,
2013-07-08 02:01:00,80.1,47.5,29.71,WNW,292,6.9,6.9,32,0.00,CLR,,0.00,WeatherDisplay:10.37,2013-07-07 23:01:00,
2013-07-08 02:02:00,80.1,47.5,29.71,North,0,6.9,6.9,32,0.00,CLR,,0.00,WeatherDisplay:10.37,2013-07-07 23:02:00,
2013-07-08 02:04:00,80.1,47.5,29.71,NNW,338,9.2,9.2,32,0.00,CLR,,0.00,WeatherDisplay:10.37,2013-07-07 23:04:00,
2013-07-08 02:06:00,80.1,47.5,29.71,NW,315,8.1,8.1,32,0.00,CLR,,0.00,WeatherDisplay:10.37,2013-07-07 23:06:00,
2013-07-08 02:07:00,79.9,47.4,29.71,North,0,9.2,9.2,32,0.00,CLR,,0.00,WeatherDisplay:10.37,2013-07-07 23:07:00,
2013-07-08 02:09:00,79.9,47.4,29.71,ENE,68,6.9,6.9,32,0.00,CLR,,0.00,WeatherDisplay:10.37,2013-07-07 23:09:00,
2013-07-08 02:11:00,79.9,47.4,29.71,NNE,22,9.2,9.2,32,0.00,CLR,,0.00,WeatherDisplay:10.37,2013-07-07 23:11:00,
2013-07-08 02:12:00,79.9,47.4,29.71,NNE,22,9.2,9.2,32,0.00,CLR,,0.00,WeatherDisplay:10.37,2013-07-07 23:12:00,
2013-07-08 02:14:00,79.7,47.2,29.71,North,0,9.7,9.7,32,0.00,CLR,,0.00,WeatherDisplay:10.37,2013-07-07 23:14:00,
2013-07-08 02:16:00,79.7,47.2,29.71,North,0,8.1,8.1,32,0.00,CLR,,0.00,WeatherDisplay:10.37,2013-07-07 23:16:00,
2013-07-08 02:17:00,79.7,47.2,29.71,NW,315,6.9,6.9,32,0.00,CLR,,0.00,WeatherDisplay:10.37,2013-07-07 23:17:00,
2013-07-08 02:19:00,79.7,47.2,29.71,NNW,338,9.2,9.2,32,0.00,CLR,,0.00,WeatherDisplay:10.37,2013-07-07 23:19:00,
2013-07-08 02:21:00,79.7,47.2,29.71,NNW,338,16.1,16.1,32,0.00,CLR,,0.00,WeatherDisplay:10.37,2013-07-07 23:21:00,
2013-07-08 02:22:00,79.7,47.2,29.71,NNW,338,16.1,16.1,32,0.00,CLR,,0.00,WeatherDisplay:10.37,2013-07-07 23:22:00,
2013-07-08 02:25:00,79.7,47.2,29.71,NNE,22,12.7,12.7,32,0.00,CLR,,0.00,WeatherDisplay:10.37,2013-07-07 23:25:00,
2013-07-08 02:26:00,79.7,47.2,29.71,NNW,338,11.5,11.5,32,0.00,CLR,,0.00,WeatherDisplay:10.37,2013-07-07 23:26:00,
2013-07-08 02:27:00,79.7,47.2,29.71,NNE,22,9.2,9.2,32,0.00,CLR,,0.00,WeatherDisplay:10.37,2013-07-07 23:27:00,
2013-07-08 02:28:00,79.7,47.2,29.71,NE,45,8.1,8.1,32,0.00,CLR,,0.00,WeatherDisplay:10.37,2013-07-07 23:28:00,
2013-07-08 02:30:00,79.7,47.2,29.71,North,0,5.8,5.8,32,0.00,CLR,,0.00,WeatherDisplay:10.37,2013-07-07 23:30:00,
2013-07-08 02:31:00,79.5,47.1,29.71,NNW,338,7.6,7.6,32,0.00,CLR,,0.00,WeatherDisplay:10.37,2013-07-07 23:31:00,
2013-07-08 02:32:00,79.5,47.1,29.71,NE,45,8.1,8.1,32,0.00,CLR,,0.00,WeatherDisplay:10.37,2013-07-07 23:32:00,
2013-07-08 02:33:00,79.5,47.1,29.71,NNE,22,5.9,5.9,32,0.00,CLR,,0.00,WeatherDisplay:10.37,2013-07-07 23:33:00,
2013-07-08 02:35:00,79.5,47.1,29.71,North,0,10.5,10.5,32,0.00,CLR,,0.00,WeatherDisplay:10.37,2013-07-07 23:35:00,
2013-07-08 02:37:00,79.5,47.1,29.71,North,0,10.7,10.7,32,0.00,CLR,,0.00,WeatherDisplay:10.37,2013-07-07 23:37:00,
2013-07-08 02:38:00,79.7,47.2,29.71,NNW,338,17.3,17.3,32,0.00,CLR,,0.00,WeatherDisplay:10.37,2013-07-07 23:38:00,
2013-07-08 02:40:00,79.7,47.2,29.71,NNW,338,9.8,9.8,32,0.00,CLR,,0.00,WeatherDisplay:10.37,2013-07-07 23:40:00,
2013-07-08 02:42:00,79.7,47.2,29.71,NNW,338,9.4,9.4,32,0.00,CLR,,0.00,WeatherDisplay:10.37,2013-07-07 23:42:00,
2013-07-08 02:43:00,79.7,47.2,29.71,NW,315,9.2,9.7,32,0.00,CLR,,0.00,WeatherDisplay:10.37,2013-07-07 23:43:00,
2013-07-08 02:45:00,79.5,47.1,29.71,NNW,338,8.1,8.1,32,0.00,CLR,,0.00,WeatherDisplay:10.37,2013-07-07 23:45:00,
2013-07-08 02:47:00,79.5,47.1,29.71,NNW,338,9.2,9.2,32,0.00,CLR,,0.00,WeatherDisplay:10.37,2013-07-07 23:47:00,
2013-07-08 02:48:00,79.5,47.1,29.71,North,0,9.2,9.2,32,0.00,CLR,,0.00,WeatherDisplay:10.37,2013-07-07 23:48:00,
2013-07-08 02:49:00,79.5,47.1,29.71,NNW,338,8.1,8.1,32,0.00,CLR,,0.00,WeatherDisplay:10.37,2013-07-07 23:49:00,
2013-07-08 02:51:00,79.3,46.9,29.71,NNE,22,5.8,5.8,32,0.00,CLR,,0.00,WeatherDisplay:10.37,2013-07-07 23:51:00,
2013-07-08 02:52:00,79.3,46.9,29.71,SE,135,6.9,6.9,32,0.00,CLR,,0.00,WeatherDisplay:10.37,2013-07-07 23:52:00,
2013-07-08 02:53:00,79.3,46.9,29.71,NNW,338,8.1,8.1,32,0.00,CLR,,0.00,WeatherDisplay:10.37,2013-07-07 23:53:00,
2013-07-08 02:54:00,79.3,46.9,29.71,NNW,338,11.5,11.5,32,0.00,CLR,,0.00,WeatherDisplay:10.37,2013-07-07 23:54:00,
2013-07-08 02:56:00,79.3,46.9,29.71,NNE,22,10.5,10.5,32,0.00,CLR,,0.00,WeatherDisplay:10.37,2013-07-07 23:56:00,
2013-07-08 02:57:00,79.3,46.9,29.71,NNW,338,10.4,10.4,32,0.00,CLR,,0.00,WeatherDisplay:10.37,2013-07-07 23:57:00,
2013-07-08 02:58:00,79.3,46.9,29.71,NNE,22,13.8,13.8,32,0.00,CLR,,0.00,WeatherDisplay:10.37,2013-07-07 23:58:00,
2013-07-08 02:59:00,79.3,46.9,29.71,NNW,338,9.2,9.2,32,0.00,CLR,,0.00,WeatherDisplay:10.37,2013-07-07 23:59:00,
2013-07-08 03:02:00,79.3,46.9,29.71,NNE,22,10.4,10.4,32,0.00,CLR,,0.00,WeatherDisplay:10.37,2013-07-08 00:02:00,
2013-07-08 03:03:00,79.3,46.9,29.71,NNE,22,10.7,10.7,32,0.00,CLR,,0.00,WeatherDisplay:10.37,2013-07-08 00:03:00,
2013-07-08 03:04:00,79.3,46.9,29.71,North,0,13.0,13.0,32,0.00,CLR,,0.00,WeatherDisplay:10.37,2013-07-08 00:04:00,
2013-07-08 03:07:00,79.3,46.9,29.71,NNE,22,12.7,12.7,32,0.00,CLR,,0.00,WeatherDisplay:10.37,2013-07-08 00:07:00,
2013-07-08 03:08:00,79.3,46.9,29.71,NNE,22,8.1,8.1,32,0.00,CLR,,0.00,WeatherDisplay:10.37,2013-07-08 00:08:00,
2013-07-08 03:09:00,79.3,46.9,29.71,North,0,8.7,8.7,32,0.00,CLR,,0.00,WeatherDisplay:10.37,2013-07-08 00:09:00,
2013-07-08 03:10:00,79.3,46.9,29.71,NNE,22,9.2,9.2,32,0.00,CLR,,0.00,WeatherDisplay:10.37,2013-07-08 00:10:00,
2013-07-08 03:12:00,79.3,46.9,29.71,North,0,10.4,10.4,32,0.00,CLR,,0.00,WeatherDisplay:10.37,2013-07-08 00:12:00,
2013-07-08 03:13:00,79.2,46.8,29.71,NE,45,9.2,9.2,32,0.00,CLR,,0.00,WeatherDisplay:10.37,2013-07-08 00:13:00,
2013-07-08 03:15:00,79.2,46.8,29.71,WNW,292,5.8,5.8,32,0.00,CLR,,0.00,WeatherDisplay:10.37,2013-07-08 00:15:00,
2013-07-08 03:18:00,79.0,46.6,29.71,NNW,338,4.6,4.6,32,0.00,CLR,,0.00,WeatherDisplay:10.37,2013-07-08 00:18:00,
2013-07-08 03:20:00,79.0,46.6,29.71,NNW,338,10.4,10.4,32,0.00,CLR,,0.00,WeatherDisplay:10.37,2013-07-08 00:20:00,
2013-07-08 03:23:00,79.0,46.6,29.71,NNW,338,11.5,11.5,32,0.00,CLR,,0.00,WeatherDisplay:10.37,2013-07-08 00:23:00,
2013-07-08 03:24:00,79.0,46.6,29.71,NE,45,9.2,9.2,32,0.00,CLR,,0.00,WeatherDisplay:10.37,2013-07-08 00:24:00,
2013-07-08 03:25:00,79.0,46.6,29.71,WNW,292,9.0,9.0,32,0.00,CLR,,0.00,WeatherDisplay:10.37,2013-07-08 00:25:00,
2013-07-08 03:28:00,79.0,46.6,29.71,NNW,338,4.6,4.6,32,0.00,CLR,,0.00,WeatherDisplay:10.37,2013-07-08 00:28:00,
2013-07-08 03:29:00,79.0,46.6,29.71,NNW,338,5.8,5.8,32,0.00,CLR,,0.00,WeatherDisplay:10.37,2013-07-08 00:29:00,
2013-07-08 03:30:00,79.0,46.6,29.71,NW,315,5.8,5.8,32,0.00,CLR,,0.00,WeatherDisplay:10.37,2013-07-08 00:30:00,
2013-07-08 03:34:00,79.0,46.6,29.71,NNE,22,6.9,6.9,32,0.00,CLR,,0.00,WeatherDisplay:10.37,2013-07-08 00:34:00,
2013-07-08 03:36:00,79.0,46.6,29.71,NNE,22,10.4,10.4,32,0.00,CLR,,0.00,WeatherDisplay:10.37,2013-07-08 00:36:00,
2013-07-08 03:39:00,79.2,46.8,29.71,NW,315,9.2,9.2,32,0.00,CLR,,0.00,WeatherDisplay:10.37,2013-07-08 00:39:00,
2013-07-08 03:41:00,79.0,46.6,29.71,NNW,338,10.4,10.4,32,0.00,CLR,,0.00,WeatherDisplay:10.37,2013-07-08 00:41:00,
2013-07-08 03:44:00,79.0,46.6,29.71,NNE,22,5.8,5.8,32,0.00,CLR,,0.00,WeatherDisplay:10.37,2013-07-08 00:44:00,
2013-07-08 03:45:00,78.8,46.4,29.71,NNW,338,3.5,3.5,32,0.00,CLR,,0.00,WeatherDisplay:10.37,2013-07-08 00:45:00,
2013-07-08 03:46:00,78.8,46.4,29.71,North,0,5.8,5.9,32,0.00,CLR,,0.00,WeatherDisplay:10.37,2013-07-08 00:46:00,
2013-07-08 03:49:00,78.8,46.4,29.71,NNW,338,10.0,10.0,32,0.00,CLR,,0.00,WeatherDisplay:10.37,2013-07-08 00:49:00,
2013-07-08 03:50:00,78.8,46.4,29.71,North,0,15.2,15.2,32,0.00,CLR,,0.00,WeatherDisplay:10.37,2013-07-08 00:50:00,
2013-07-08 03:51:00,78.8,46.4,29.71,NNE,22,15.0,15.0,32,0.00,CLR,,0.00,WeatherDisplay:10.37,2013-07-08 00:51:00,
2013-07-08 03:54:00,78.8,46.4,29.71,NNW,338,5.8,5.8,32,0.00,CLR,,0.00,WeatherDisplay:10.37,2013-07-08 00:54:00,
2013-07-08 03:55:00,78.8,46.4,29.71,NNW,348,5.0,15.0,32,0.00,CLR,,0.00,WeatherDisplay:10.37,2013-07-08 00:55:00,
2013-07-08 03:56:00,78.8,46.4,29.71,NW,315,5.9,6.4,32,0.00,CLR,,0.00,WeatherDisplay:10.37,2013-07-08 00:56:00,
2013-07-08 03:59:00,78.6,46.3,29.71,North,0,5.8,5.8,32,0.00,CLR,,0.00,WeatherDisplay:10.37,2013-07-08 00:59:00,
2013-07-08 04:00:00,78.6,46.3,29.71,North,350,5.0,9.0,32,0.00,CLR,,0.00,WeatherDisplay:10.37,2013-07-08 01:00:00,
2013-07-08 04:01:00,78.6,46.3,29.71,North,0,5.8,5.8,32,0.00,CLR,,0.00,WeatherDisplay:10.37,2013-07-08 01:01:00,
2013-07-08 04:04:00,78.4,46.1,29.71,NNW,338,6.4,6.4,32,0.00,CLR,,0.00,WeatherDisplay:10.37,2013-07-08 01:04:00,
2013-07-08 04:05:00,78.4,46.1,29.71,North,351,5.0,7.0,32,0.00,CLR,,0.00,WeatherDisplay:10.37,2013-07-08 01:05:00,
2013-07-08 04:06:00,78.4,46.1,29.71,NNW,338,6.9,6.9,32,0.00,CLR,,0.00,WeatherDisplay:10.37,2013-07-08 01:06:00,
2013-07-08 04:07:00,78.4,46.1,29.71,NNW,338,5.8,5.8,32,0.00,CLR,,0.00,WeatherDisplay:10.37,2013-07-08 01:07:00,
2013-07-08 04:09:00,78.4,46.1,29.71,NNW,338,8.1,8.1,32,0.00,CLR,,0.00,WeatherDisplay:10.37,2013-07-08 01:09:00,
2013-07-08 04:10:00,78.4,46.1,29.71,NW,315,10.4,10.4,32,0.00,CLR,,0.00,WeatherDisplay:10.37,2013-07-08 01:10:00,
2013-07-08 04:11:00,78.4,46.1,29.71,NNW,338,10.4,10.4,32,0.00,CLR,,0.00,WeatherDisplay:10.37,2013-07-08 01:11:00,
2013-07-08 04:12:00,78.4,46.1,29.71,North,0,8.1,8.1,32,0.00,CLR,,0.00,WeatherDisplay:10.37,2013-07-08 01:12:00,
2013-07-08 04:15:00,78.4,46.1,29.71,NNW,338,5.8,5.8,32,0.00,CLR,,0.00,WeatherDisplay:10.37,2013-07-08 01:15:00,
2013-07-08 04:16:00,78.4,46.1,29.71,NNW,338,5.8,5.8,32,0.00,CLR,,0.00,WeatherDisplay:10.37,2013-07-08 01:16:00,
2013-07-08 04:17:00,78.3,46.0,29.71,NNW,338,4.6,4.6,32,0.00,CLR,,0.00,WeatherDisplay:10.37,2013-07-08 01:17:00,
2013-07-08 04:20:00,78.3,46.0,29.71,NNW,338,6.9,6.9,32,0.00,CLR,,0.00,WeatherDisplay:10.37,2013-07-08 01:20:00,
2013-07-08 04:21:00,78.3,46.0,29.71,WNW,292,5.8,5.9,32,0.00,CLR,,0.00,WeatherDisplay:10.37,2013-07-08 01:21:00,
2013-07-08 04:22:00,78.3,46.0,29.71,NNW,338,8.1,8.1,32,0.00,CLR,,0.00,WeatherDisplay:10.37,2013-07-08 01:22:00,
2013-07-08 04:23:00,78.3,46.0,29.71,NNW,338,8.1,8.1,32,0.00,CLR,,0.00,WeatherDisplay:10.37,2013-07-08 01:23:00,
2013-07-08 04:25:00,78.3,45.1,29.71,NNW,338,8.1,8.1,31,0.00,CLR,,0.00,WeatherDisplay:10.37,2013-07-08 01:25:00,
2013-07-08 04:27:00,78.3,46.0,29.71,NNW,338,5.8,5.8,32,0.00,CLR,,0.00,WeatherDisplay:10.37,2013-07-08 01:27:00,
2013-07-08 04:28:00,78.3,45.1,29.71,WNW,292,5.8,5.8,31,0.00,CLR,,0.00,WeatherDisplay:10.37,2013-07-08 01:28:00,
2013-07-08 04:30:00,78.3,45.1,29.71,NNW,338,5.8,5.8,31,0.00,CLR,,0.00,WeatherDisplay:10.37,2013-07-08 01:30:00,
2013-07-08 04:32:00,78.1,45.0,29.71,NW,315,4.6,4.6,31,0.00,CLR,,0.00,WeatherDisplay:10.37,2013-07-08 01:32:00,
2013-07-08 04:33:00,78.1,45.0,29.71,NNW,338,4.9,4.9,31,0.00,CLR,,0.00,WeatherDisplay:10.37,2013-07-08 01:33:00,
2013-07-08 04:35:00,78.1,45.0,29.71,North,0,7.6,7.6,31,0.00,CLR,,0.00,WeatherDisplay:10.37,2013-07-08 01:35:00,
2013-07-08 04:37:00,78.1,45.0,29.71,North,0,9.8,9.8,31,0.00,CLR,,0.00,WeatherDisplay:10.37,2013-07-08 01:37:00,
2013-07-08 04:38:00,78.3,45.1,29.68,NNE,22,9.2,9.2,31,0.00,CLR,,0.00,WeatherDisplay:10.37,2013-07-08 01:38:00,
2013-07-08 04:41:00,78.1,45.0,29.68,NNW,338,5.8,5.8,31,0.00,CLR,,0.00,WeatherDisplay:10.37,2013-07-08 01:41:00,
2013-07-08 04:42:00,78.1,45.0,29.68,NNW,338,6.7,6.7,31,0.00,CLR,,0.00,WeatherDisplay:10.37,2013-07-08 01:42:00,
2013-07-08 04:43:00,78.1,45.0,29.68,NW,315,8.1,8.1,31,0.00,CLR,,0.00,WeatherDisplay:10.37,2013-07-08 01:43:00,
2013-07-08 04:46:00,78.3,45.1,29.68,NNW,338,8.1,8.1,31,0.00,CLR,,0.00,WeatherDisplay:10.37,2013-07-08 01:46:00,
2013-07-08 04:48:00,78.3,45.1,29.68,NNW,338,6.9,6.9,31,0.00,CLR,,0.00,WeatherDisplay:10.37,2013-07-08 01:48:00,
2013-07-08 04:49:00,78.3,45.1,29.68,NNW,338,7.4,7.4,31,0.00,CLR,,0.00,WeatherDisplay:10.37,2013-07-08 01:49:00,
2013-07-08 04:51:00,78.4,45.3,29.68,NNW,338,9.2,9.2,31,0.00,CLR,,0.00,WeatherDisplay:10.37,2013-07-08 01:51:00,
2013-07-08 04:54:00,78.4,45.3,29.71,NNW,338,8.1,8.1,31,0.00,CLR,,0.00,WeatherDisplay:10.37,2013-07-08 01:54:00,
2013-07-08 04:56:00,78.6,43.7,29.71,North,0,9.2,9.2,29,0.00,CLR,,0.00,WeatherDisplay:10.37,2013-07-08 01:56:00,
2013-07-08 04:57:00,78.6,43.7,29.71,NNW,338,11.5,11.5,29,0.00,CLR,,0.00,WeatherDisplay:10.37,2013-07-08 01:57:00,
2013-07-08 04:59:00,78.6,43.7,29.71,NNW,338,6.2,6.2,29,0.00,CLR,,0.00,WeatherDisplay:10.37,2013-07-08 01:59:00,
2013-07-08 05:01:00,78.6,45.4,29.71,WNW,292,6.9,6.9,31,0.00,CLR,,0.00,WeatherDisplay:10.37,2013-07-08 02:01:00,
2013-07-08 05:02:00,78.6,45.4,29.71,NW,315,9.2,9.2,31,0.00,CLR,,0.00,WeatherDisplay:10.37,2013-07-08 02:02:00,
2013-07-08 05:04:00,78.6,45.4,29.71,NNW,338,6.9,6.9,31,0.00,CLR,,0.00,WeatherDisplay:10.37,2013-07-08 02:04:00,
2013-07-08 05:06:00,78.6,45.4,29.71,North,0,9.2,9.2,31,0.00,CLR,,0.00,WeatherDisplay:10.37,2013-07-08 02:06:00,
2013-07-08 05:07:00,78.6,45.4,29.71,NNW,338,11.5,11.5,31,0.00,CLR,,0.00,WeatherDisplay:10.37,2013-07-08 02:07:00,
2013-07-08 05:09:00,78.6,45.4,29.68,North,0,8.1,8.1,31,0.00,CLR,,0.00,WeatherDisplay:10.37,2013-07-08 02:09:00,
2013-07-08 05:10:00,78.6,45.4,29.68,NNE,22,8.1,8.1,31,0.00,CLR,,0.00,WeatherDisplay:10.37,2013-07-08 02:10:00,
2013-07-08 05:12:00,78.6,45.4,29.68,WNW,292,6.9,6.9,31,0.00,CLR,,0.00,WeatherDisplay:10.37,2013-07-08 02:12:00,
2013-07-08 05:14:00,78.4,45.3,29.68,NNW,338,5.8,5.8,31,0.00,CLR,,0.00,WeatherDisplay:10.37,2013-07-08 02:14:00,
2013-07-08 05:15:00,78.4,45.3,29.68,NNW,338,5.8,5.8,31,0.00,CLR,,0.00,WeatherDisplay:10.37,2013-07-08 02:15:00,
2013-07-08 05:17:00,78.4,45.3,29.68,North,0,8.1,8.1,31,0.00,CLR,,0.00,WeatherDisplay:10.37,2013-07-08 02:17:00,
2013-07-08 05:19:00,78.4,45.3,29.68,NNW,338,11.5,11.5,31,0.00,CLR,,0.00,WeatherDisplay:10.37,2013-07-08 02:19:00,
2013-07-08 05:20:00,78.4,45.3,29.68,WNW,292,10.5,10.5,31,0.00,CLR,,0.00,WeatherDisplay:10.37,2013-07-08 02:20:00,
2013-07-08 05:22:00,78.4,45.3,29.68,NNW,338,10.4,10.4,31,0.00,CLR,,0.00,WeatherDisplay:10.37,2013-07-08 02:22:00,
2013-07-08 05:23:00,78.4,45.3,29.68,NNW,338,8.7,8.7,31,0.00,CLR,,0.00,WeatherDisplay:10.37,2013-07-08 02:23:00,
2013-07-08 05:24:00,78.4,45.3,29.71,NNW,338,10.4,10.4,31,0.00,CLR,,0.00,WeatherDisplay:10.37,2013-07-08 02:24:00,
2013-07-08 05:25:00,78.4,45.3,29.71,NNE,22,8.5,8.5,31,0.00,CLR,,0.00,WeatherDisplay:10.37,2013-07-08 02:25:00,
2013-07-08 05:27:00,78.4,45.3,29.71,NW,315,12.8,12.8,31,0.00,CLR,,0.00,WeatherDisplay:10.37,2013-07-08 02:27:00,
2013-07-08 05:28:00,78.4,45.3,29.71,NNW,338,12.7,12.7,31,0.00,CLR,,0.00,WeatherDisplay:10.37,2013-07-08 02:28:00,
2013-07-08 05:30:00,78.3,45.1,29.71,NNW,338,5.8,5.8,31,0.00,CLR,,0.00,WeatherDisplay:10.37,2013-07-08 02:30:00,
2013-07-08 05:32:00,78.3,45.1,29.71,North,0,13.8,13.8,31,0.00,CLR,,0.00,WeatherDisplay:10.37,2013-07-08 02:32:00,
2013-07-08 05:33:00,78.3,45.1,29.71,NNE,22,10.4,10.4,31,0.00,CLR,,0.00,WeatherDisplay:10.37,2013-07-08 02:33:00,
2013-07-08 05:35:00,78.1,45.0,29.71,NNE,22,12.5,12.5,31,0.00,CLR,,0.00,WeatherDisplay:10.37,2013-07-08 02:35:00,
2013-07-08 05:36:00,78.1,45.0,29.71,NNE,22,13.8,13.8,31,0.00,CLR,,0.00,WeatherDisplay:10.37,2013-07-08 02:36:00,
2013-07-08 05:37:00,78.1,45.0,29.71,NNW,338,10.4,10.4,31,0.00,CLR,,0.00,WeatherDisplay:10.37,2013-07-08 02:37:00,
2013-07-08 05:38:00,78.1,45.8,29.71,NNW,338,10.5,10.5,32,0.00,CLR,,0.00,WeatherDisplay:10.37,2013-07-08 02:38:00,
2013-07-08 05:40:00,78.1,45.8,29.71,WNW,292,5.8,5.8,32,0.00,CLR,,0.00,WeatherDisplay:10.37,2013-07-08 02:40:00,
2013-07-08 05:41:00,78.1,45.8,29.71,WNW,292,5.8,5.8,32,0.00,CLR,,0.00,WeatherDisplay:10.37,2013-07-08 02:41:00,
2013-07-08 05:42:00,77.9,45.7,29.71,North,0,8.1,8.1,32,0.00,CLR,,0.00,WeatherDisplay:10.37,2013-07-08 02:42:00,
2013-07-08 05:43:00,77.9,45.7,29.71,NNE,22,9.2,9.2,32,0.00,CLR,,0.00,WeatherDisplay:10.37,2013-07-08 02:43:00,
2013-07-08 05:45:00,77.9,45.7,29.71,North,0,10.4,10.4,32,0.00,CLR,,0.00,WeatherDisplay:10.37,2013-07-08 02:45:00,
2013-07-08 05:46:00,77.9,45.7,29.71,NNE,22,15.4,15.4,32,0.00,CLR,,0.00,WeatherDisplay:10.37,2013-07-08 02:46:00,
2013-07-08 05:47:00,77.9,45.7,29.71,NNW,338,15.0,15.0,32,0.00,CLR,,0.00,WeatherDisplay:10.37,2013-07-08 02:47:00,
2013-07-08 05:48:00,77.9,45.7,29.71,NNW,338,10.4,10.4,32,0.00,CLR,,0.00,WeatherDisplay:10.37,2013-07-08 02:48:00,
2013-07-08 05:50:00,77.9,45.7,29.71,NNW,338,17.3,17.3,32,0.00,CLR,,0.00,WeatherDisplay:10.37,2013-07-08 02:50:00,
2013-07-08 05:51:00,77.9,45.7,29.71,North,0,17.3,17.3,32,0.00,CLR,,0.00,WeatherDisplay:10.37,2013-07-08 02:51:00,
2013-07-08 05:52:00,77.9,45.7,29.71,NW,315,5.8,5.8,32,0.00,CLR,,0.00,WeatherDisplay:10.37,2013-07-08 02:52:00,
2013-07-08 05:54:00,77.9,45.7,29.71,NNW,338,5.8,5.8,32,0.00,CLR,,0.00,WeatherDisplay:10.37,2013-07-08 02:54:00,
2013-07-08 05:55:00,77.7,45.5,29.71,WNW,292,7.1,7.1,32,0.00,CLR,,0.00,WeatherDisplay:10.37,2013-07-08 02:55:00,
2013-07-08 05:56:00,77.7,45.5,29.71,NW,315,8.1,8.1,32,0.00,CLR,,0.00,WeatherDisplay:10.37,2013-07-08 02:56:00,
2013-07-08 05:57:00,77.7,45.5,29.71,NNE,22,8.1,8.1,32,0.00,CLR,,0.00,WeatherDisplay:10.37,2013-07-08 02:57:00,
2013-07-08 05:58:00,77.7,45.5,29.71,NE,45,11.5,11.5,32,0.00,CLR,,0.00,WeatherDisplay:10.37,2013-07-08 02:58:00,
2013-07-08 05:59:00,77.7,45.5,29.71,NNW,338,11.5,11.5,32,0.00,CLR,,0.00,WeatherDisplay:10.37,2013-07-08 02:59:00,
2013-07-08 06:00:00,77.7,45.5,29.71,NNW,338,12.1,12.1,32,0.00,CLR,,0.00,WeatherDisplay:10.37,2013-07-08 03:00:00,
2013-07-08 06:01:00,77.7,45.5,29.71,North,0,12.7,12.7,32,0.00,CLR,,0.00,WeatherDisplay:10.37,2013-07-08 03:01:00,
2013-07-08 06:02:00,77.7,45.5,29.71,NNW,338,10.4,10.4,32,0.00,CLR,,0.00,WeatherDisplay:10.37,2013-07-08 03:02:00,
2013-07-08 06:03:00,77.7,45.5,29.71,NW,315,10.4,10.4,32,0.00,CLR,,0.00,WeatherDisplay:10.37,2013-07-08 03:03:00,
2013-07-08 06:04:00,77.7,45.5,29.71,NNW,338,8.1,8.1,32,0.00,CLR,,0.00,WeatherDisplay:10.37,2013-07-08 03:04:00,
2013-07-08 06:05:00,77.7,45.5,29.71,NNW,338,11.5,11.5,32,0.00,CLR,,0.00,WeatherDisplay:10.37,2013-07-08 03:05:00,
2013-07-08 06:06:00,77.7,45.5,29.71,NNW,338,11.5,11.5,32,0.00,CLR,,0.00,WeatherDisplay:10.37,2013-07-08 03:06:00,
2013-07-08 06:07:00,77.7,45.5,29.71,North,0,15.4,15.4,32,0.00,CLR,,0.00,WeatherDisplay:10.37,2013-07-08 03:07:00,
2013-07-08 06:08:00,77.7,45.5,29.71,North,0,16.1,16.1,32,0.00,CLR,,0.00,WeatherDisplay:10.37,2013-07-08 03:08:00,
2013-07-08 06:09:00,77.7,45.5,29.71,NNW,338,9.2,9.2,32,0.00,CLR,,0.00,WeatherDisplay:10.37,2013-07-08 03:09:00,
2013-07-08 06:10:00,77.7,45.5,29.71,NNW,338,8.1,8.1,32,0.00,CLR,,0.00,WeatherDisplay:10.37,2013-07-08 03:10:00,
2013-07-08 06:12:00,77.5,45.3,29.71,NNW,338,6.9,6.9,32,0.00,CLR,,0.00,WeatherDisplay:10.37,2013-07-08 03:12:00,
2013-07-08 06:13:00,77.5,45.3,29.71,NNW,338,10.0,10.0,32,0.00,CLR,,0.00,WeatherDisplay:10.37,2013-07-08 03:13:00,
2013-07-08 06:14:00,77.5,45.3,29.71,East,90,10.4,10.4,32,0.00,CLR,,0.00,WeatherDisplay:10.37,2013-07-08 03:14:00,
2013-07-08 06:15:00,77.5,46.2,29.71,North,0,17.8,17.8,33,0.00,CLR,,0.00,WeatherDisplay:10.37,2013-07-08 03:15:00,
2013-07-08 06:17:00,77.7,46.3,29.71,North,0,19.6,19.6,33,0.00,CLR,,0.00,WeatherDisplay:10.37,2013-07-08 03:17:00,
2013-07-08 06:18:00,77.7,46.3,29.71,WNW,292,19.6,19.6,33,0.00,CLR,,0.00,WeatherDisplay:10.37,2013-07-08 03:18:00,
2013-07-08 06:19:00,77.7,46.3,29.71,NNW,338,8.1,8.1,33,0.00,CLR,,0.00,WeatherDisplay:10.37,2013-07-08 03:19:00,
2013-07-08 06:21:00,77.7,46.3,29.71,WNW,292,12.7,12.7,33,0.00,CLR,,0.00,WeatherDisplay:10.37,2013-07-08 03:21:00,
2013-07-08 06:22:00,77.5,46.2,29.71,NNW,338,6.9,6.9,33,0.00,CLR,,0.00,WeatherDisplay:10.37,2013-07-08 03:22:00,
2013-07-08 06:24:00,77.5,46.2,29.71,NW,315,12.7,12.7,33,0.00,CLR,,0.00,WeatherDisplay:10.37,2013-07-08 03:24:00,
2013-07-08 06:25:00,77.5,46.2,29.71,WNW,292,12.7,12.7,33,0.00,CLR,,0.00,WeatherDisplay:10.37,2013-07-08 03:25:00,
2013-07-08 06:26:00,77.5,46.2,29.71,North,0,12.7,12.7,33,0.00,CLR,,0.00,WeatherDisplay:10.37,2013-07-08 03:26:00,
2013-07-08 06:27:00,77.5,46.2,29.71,NW,315,8.1,8.7,33,0.00,CLR,,0.00,WeatherDisplay:10.37,2013-07-08 03:27:00,
2013-07-08 06:29:00,77.5,46.2,29.71,NNE,22,13.8,13.8,33,0.00,CLR,,0.00,WeatherDisplay:10.37,2013-07-08 03:29:00,
2013-07-08 06:30:00,77.5,46.2,29.71,NNW,338,10.4,10.4,33,0.00,CLR,,0.00,WeatherDisplay:10.37,2013-07-08 03:30:00,
2013-07-08 06:31:00,77.5,46.2,29.71,NNE,22,11.5,11.5,33,0.00,CLR,,0.00,WeatherDisplay:10.37,2013-07-08 03:31:00,
2013-07-08 06:32:00,77.5,46.2,29.71,NW,315,11.5,11.5,33,0.00,CLR,,0.00,WeatherDisplay:10.37,2013-07-08 03:32:00,
2013-07-08 06:34:00,77.5,46.2,29.71,NNW,338,8.1,8.1,33,0.00,CLR,,0.00,WeatherDisplay:10.37,2013-07-08 03:34:00,
2013-07-08 06:35:00,77.5,46.2,29.71,NNW,338,11.5,11.5,33,0.00,CLR,,0.00,WeatherDisplay:10.37,2013-07-08 03:35:00,
2013-07-08 06:37:00,77.5,46.2,29.71,NNW,338,9.2,9.2,33,0.00,CLR,,0.00,WeatherDisplay:10.37,2013-07-08 03:37:00,
2013-07-08 06:38:00,77.5,46.2,29.71,NNW,338,13.8,13.8,33,0.00,CLR,,0.00,WeatherDisplay:10.37,2013-07-08 03:38:00,
2013-07-08 06:39:00,77.5,46.2,29.71,NNW,338,10.4,10.4,33,0.00,CLR,,0.00,WeatherDisplay:10.37,2013-07-08 03:39:00,
2013-07-08 06:40:00,77.5,46.2,29.71,NNE,22,8.1,8.1,33,0.00,CLR,,0.00,WeatherDisplay:10.37,2013-07-08 03:40:00,
2013-07-08 06:42:00,77.5,46.2,29.71,NNW,338,8.1,8.1,33,0.00,CLR,,0.00,WeatherDisplay:10.37,2013-07-08 03:42:00,
2013-07-08 06:43:00,77.5,46.2,29.71,NNW,338,11.5,11.5,33,0.00,CLR,,0.00,WeatherDisplay:10.37,2013-07-08 03:43:00,
2013-07-08 06:44:00,77.5,46.2,29.71,NNW,338,7.8,7.8,33,0.00,CLR,,0.00,WeatherDisplay:10.37,2013-07-08 03:44:00,
2013-07-08 06:45:00,77.5,46.2,29.71,NNW,338,8.1,8.1,33,0.00,CLR,,0.00,WeatherDisplay:10.37,2013-07-08 03:45:00,
2013-07-08 06:46:00,77.5,46.2,29.71,NNW,338,8.1,8.1,33,0.00,CLR,,0.00,WeatherDisplay:10.37,2013-07-08 03:46:00,
2013-07-08 06:47:00,77.5,46.2,29.71,NW,315,8.1,8.1,33,0.00,CLR,,0.00,WeatherDisplay:10.37,2013-07-08 03:47:00,
2013-07-08 06:48:00,77.5,46.2,29.71,NNW,338,6.9,6.9,33,0.00,CLR,,0.00,WeatherDisplay:10.37,2013-07-08 03:48:00,
2013-07-08 06:49:00,77.5,46.2,29.71,NNW,338,6.9,7.1,33,0.00,CLR,,0.00,WeatherDisplay:10.37,2013-07-08 03:49:00,
2013-07-08 06:50:00,77.5,46.2,29.71,North,0,8.7,8.7,33,0.00,CLR,,0.00,WeatherDisplay:10.37,2013-07-08 03:50:00,
2013-07-08 06:51:00,77.5,46.2,29.71,NW,315,9.2,9.2,33,0.00,CLR,,0.00,WeatherDisplay:10.37,2013-07-08 03:51:00,
2013-07-08 06:52:00,77.5,46.2,29.71,NNW,338,10.4,10.4,33,0.00,CLR,,0.00,WeatherDisplay:10.37,2013-07-08 03:52:00,
2013-07-08 06:53:00,77.5,46.2,29.71,NNW,338,10.4,10.4,33,0.00,CLR,,0.00,WeatherDisplay:10.37,2013-07-08 03:53:00,
2013-07-08 06:54:00,77.5,46.2,29.71,NNW,338,11.5,11.5,33,0.00,CLR,,0.00,WeatherDisplay:10.37,2013-07-08 03:54:00,
2013-07-08 06:55:00,77.4,46.0,29.71,NNE,22,10.2,10.2,33,0.00,CLR,,0.00,WeatherDisplay:10.37,2013-07-08 03:55:00,
2013-07-08 06:56:00,77.4,46.0,29.71,NW,315,10.4,10.4,33,0.00,CLR,,0.00,WeatherDisplay:10.37,2013-07-08 03:56:00,
2013-07-08 06:57:00,77.4,46.0,29.71,NNW,338,9.2,9.2,33,0.00,CLR,,0.00,WeatherDisplay:10.37,2013-07-08 03:57:00,
2013-07-08 06:59:00,77.7,46.3,29.71,NW,315,8.1,8.1,33,0.00,CLR,,0.00,WeatherDisplay:10.37,2013-07-08 03:59:00,
2013-07-08 07:00:00,77.7,46.3,29.71,NNW,338,7.1,7.1,33,0.00,CLR,,0.00,WeatherDisplay:10.37,2013-07-08 04:00:00,
2013-07-08 07:01:00,77.9,46.5,29.71,WNW,292,6.9,6.9,33,0.00,CLR,,0.00,WeatherDisplay:10.37,2013-07-08 04:01:00,
2013-07-08 07:06:00,78.8,47.3,29.71,NNW,338,8.1,8.1,33,0.00,CLR,,0.00,WeatherDisplay:10.37,2013-07-08 04:06:00,
2013-07-08 07:07:00,78.8,46.4,29.71,NW,315,13.8,13.8,32,0.00,CLR,,0.00,WeatherDisplay:10.37,2013-07-08 04:07:00,
2013-07-08 07:11:00,79.2,46.8,29.71,NNE,22,9.2,9.2,32,0.00,CLR,,0.00,WeatherDisplay:10.37,2013-07-08 04:11:00,
2013-07-08 07:12:00,79.2,46.8,29.71,NW,315,8.5,8.5,32,0.00,CLR,,0.00,WeatherDisplay:10.37,2013-07-08 04:12:00,
2013-07-08 07:16:00,79.3,46.9,29.71,NNW,338,5.8,5.8,32,0.00,CLR,,0.00,WeatherDisplay:10.37,2013-07-08 04:16:00,
2013-07-08 07:17:00,79.7,47.2,29.71,NW,315,5.8,5.8,32,0.00,CLR,,0.00,WeatherDisplay:10.37,2013-07-08 04:17:00,
2013-07-08 07:21:00,79.7,47.2,29.71,North,0,12.7,12.7,32,0.00,CLR,,0.00,WeatherDisplay:10.37,2013-07-08 04:21:00,
2013-07-08 07:22:00,79.7,47.2,29.71,North,0,13.8,13.8,32,0.00,CLR,,0.00,WeatherDisplay:10.37,2013-07-08 04:22:00,
2013-07-08 07:26:00,79.9,47.4,29.71,NNW,338,13.8,13.8,32,0.00,CLR,,0.00,WeatherDisplay:10.37,2013-07-08 04:26:00,
2013-07-08 07:27:00,79.9,47.4,29.71,WNW,292,13.8,13.8,32,0.00,CLR,,0.00,WeatherDisplay:10.37,2013-07-08 04:27:00,
2013-07-08 07:31:00,80.1,47.5,29.71,NNW,338,8.5,8.5,32,0.00,CLR,,0.00,WeatherDisplay:10.37,2013-07-08 04:31:00,
2013-07-08 07:32:00,80.1,47.5,29.71,NNW,338,8.1,8.1,32,0.00,CLR,,0.00,WeatherDisplay:10.37,2013-07-08 04:32:00,
2013-07-08 07:36:00,80.4,47.9,29.71,NW,315,8.1,8.1,32,0.00,CLR,,0.00,WeatherDisplay:10.37,2013-07-08 04:36:00,
2013-07-08 07:37:00,80.4,47.9,29.71,NNW,338,6.9,6.9,32,0.00,CLR,,0.00,WeatherDisplay:10.37,2013-07-08 04:37:00,
2013-07-08 07:38:00,80.6,48.0,29.71,North,0,5.8,5.8,32,0.00,CLR,,0.00,WeatherDisplay:10.37,2013-07-08 04:38:00,
2013-07-08 07:41:00,80.8,47.3,29.74,NNW,338,9.2,9.2,31,0.00,CLR,,0.00,WeatherDisplay:10.37,2013-07-08 04:41:00,
2013-07-08 07:42:00,80.8,47.3,29.74,NNW,338,9.2,9.2,31,0.00,CLR,,0.00,WeatherDisplay:10.37,2013-07-08 04:42:00,
2013-07-08 07:43:00,80.8,48.2,29.74,NNW,338,10.4,10.4,32,0.00,CLR,,0.00,WeatherDisplay:10.37,2013-07-08 04:43:00,
2013-07-08 07:46:00,81.0,47.5,29.74,North,0,10.7,10.7,31,0.00,CLR,,0.00,WeatherDisplay:10.37,2013-07-08 04:46:00,
2013-07-08 07:47:00,81.0,47.5,29.74,NNW,338,10.4,10.4,31,0.00,CLR,,0.00,WeatherDisplay:10.37,2013-07-08 04:47:00,
2013-07-08 07:48:00,81.1,47.6,29.74,NNE,22,10.4,10.4,31,0.00,CLR,,0.00,WeatherDisplay:10.37,2013-07-08 04:48:00,
2013-07-08 07:51:00,81.1,47.6,29.74,NNW,338,10.4,10.4,31,0.00,CLR,,0.00,WeatherDisplay:10.37,2013-07-08 04:51:00,
2013-07-08 07:52:00,81.1,47.6,29.74,WNW,292,9.2,9.2,31,0.00,CLR,,0.00,WeatherDisplay:10.37,2013-07-08 04:52:00,
2013-07-08 07:53:00,81.1,47.6,29.74,NNE,22,9.2,9.2,31,0.00,CLR,,0.00,WeatherDisplay:10.37,2013-07-08 04:53:00,
2013-07-08 07:54:00,81.1,47.6,29.74,NNW,338,11.5,11.5,31,0.00,CLR,,0.00,WeatherDisplay:10.37,2013-07-08 04:54:00,
2013-07-08 07:57:00,81.9,48.3,29.74,WSW,248,8.1,8.1,31,0.00,CLR,,0.00,WeatherDisplay:10.37,2013-07-08 04:57:00,
2013-07-08 07:58:00,82.0,48.4,29.74,NW,315,5.8,5.8,31,0.00,CLR,,0.00,WeatherDisplay:10.37,2013-07-08 04:58:00,
2013-07-08 07:59:00,82.4,48.7,29.74,NW,315,5.8,5.8,31,0.00,CLR,,0.00,WeatherDisplay:10.37,2013-07-08 04:59:00,
2013-07-08 08:02:00,82.8,49.0,29.74,North,0,5.8,5.8,31,0.00,CLR,,0.00,WeatherDisplay:10.37,2013-07-08 05:02:00,
2013-07-08 08:03:00,82.9,49.2,29.74,West,270,4.6,4.6,31,0.00,CLR,,0.00,WeatherDisplay:10.37,2013-07-08 05:03:00,
2013-07-08 08:04:00,82.9,49.2,29.74,WNW,292,5.8,5.8,31,0.00,CLR,,0.00,WeatherDisplay:10.37,2013-07-08 05:04:00,
2013-07-08 08:07:00,82.9,49.2,29.74,NW,315,8.1,8.1,31,0.00,CLR,,0.00,WeatherDisplay:10.37,2013-07-08 05:07:00,
2013-07-08 08:08:00,82.9,49.2,29.74,West,270,5.8,5.8,31,0.00,CLR,,0.00,WeatherDisplay:10.37,2013-07-08 05:08:00,
2013-07-08 08:09:00,83.1,49.3,29.74,NW,315,4.6,4.6,31,0.00,CLR,,0.00,WeatherDisplay:10.37,2013-07-08 05:09:00,
2013-07-08 08:12:00,83.5,49.7,29.74,NNW,338,6.0,6.0,31,0.00,CLR,,0.00,WeatherDisplay:10.37,2013-07-08 05:12:00,
2013-07-08 08:13:00,83.8,50.0,29.74,WNW,292,5.8,5.8,31,0.00,CLR,,0.00,WeatherDisplay:10.37,2013-07-08 05:13:00,
2013-07-08 08:14:00,83.5,48.8,29.74,NNW,338,10.4,10.4,30,0.00,CLR,,0.00,WeatherDisplay:10.37,2013-07-08 05:14:00,
2013-07-08 08:17:00,83.8,49.1,29.74,WNW,292,5.8,5.8,30,0.00,CLR,,0.00,WeatherDisplay:10.37,2013-07-08 05:17:00,
2013-07-08 08:18:00,83.8,49.1,29.74,NNW,338,4.6,4.6,30,0.00,CLR,,0.00,WeatherDisplay:10.37,2013-07-08 05:18:00,
2013-07-08 08:20:00,84.0,49.2,29.74,NW,321,3.0,8.0,30,0.00,CLR,,0.00,WeatherDisplay:10.37,2013-07-08 05:20:00,
2013-07-08 08:22:00,84.4,49.6,29.74,NNW,338,6.4,6.4,30,0.00,CLR,,0.00,WeatherDisplay:10.37,2013-07-08 05:22:00,
2013-07-08 08:23:00,84.4,49.6,29.74,West,270,6.9,6.9,30,0.00,CLR,,0.00,WeatherDisplay:10.37,2013-07-08 05:23:00,
2013-07-08 08:24:00,84.4,49.6,29.74,NW,315,6.9,6.9,30,0.00,CLR,,0.00,WeatherDisplay:10.37,2013-07-08 05:24:00,
2013-07-08 08:25:00,84.6,49.7,29.74,NW,315,4.6,4.6,30,0.00,CLR,,0.00,WeatherDisplay:10.37,2013-07-08 05:25:00,
2013-07-08 08:27:00,84.7,49.9,29.74,North,0,4.6,4.6,30,0.00,CLR,,0.00,WeatherDisplay:10.37,2013-07-08 05:27:00,
2013-07-08 08:28:00,84.7,49.9,29.74,WNW,292,5.8,5.8,30,0.00,CLR,,0.00,WeatherDisplay:10.37,2013-07-08 05:28:00,
2013-07-08 08:29:00,84.7,49.9,29.74,WNW,292,6.2,6.2,30,0.00,CLR,,0.00,WeatherDisplay:10.37,2013-07-08 05:29:00,
2013-07-08 08:30:00,84.7,49.9,29.74,NNW,338,11.4,11.4,30,0.00,CLR,,0.00,WeatherDisplay:10.37,2013-07-08 05:30:00,
2013-07-08 08:32:00,84.4,49.6,29.74,NNW,338,9.2,9.2,30,0.00,CLR,,0.00,WeatherDisplay:10.37,2013-07-08 05:32:00,
2013-07-08 08:33:00,84.4,49.6,29.74,North,0,10.0,10.0,30,0.00,CLR,,0.00,WeatherDisplay:10.37,2013-07-08 05:33:00,
2013-07-08 08:34:00,84.2,49.4,29.74,NNW,338,10.4,10.4,30,0.00,CLR,,0.00,WeatherDisplay:10.37,2013-07-08 05:34:00,
2013-07-08 08:35:00,84.2,49.4,29.74,NNW,338,8.5,8.5,30,0.00,CLR,,0.00,WeatherDisplay:10.37,2013-07-08 05:35:00,
2013-07-08 08:37:00,84.6,49.7,29.74,NE,45,5.8,5.8,30,0.00,CLR,,0.00,WeatherDisplay:10.37,2013-07-08 05:37:00,
2013-07-08 08:38:00,84.6,49.7,29.74,NNW,338,8.1,8.1,30,0.00,CLR,,0.00,WeatherDisplay:10.37,2013-07-08 05:38:00,
2013-07-08 08:39:00,84.7,49.9,29.74,WNW,292,5.8,5.8,30,0.00,CLR,,0.00,WeatherDisplay:10.37,2013-07-08 05:39:00,
2013-07-08 08:40:00,85.1,50.2,29.74,NNW,338,5.8,5.8,30,0.00,CLR,,0.00,WeatherDisplay:10.37,2013-07-08 05:40:00,
2013-07-08 08:43:00,85.5,50.5,29.74,NNE,22,4.6,4.6,30,0.00,CLR,,0.00,WeatherDisplay:10.37,2013-07-08 05:43:00,
2013-07-08 08:44:00,85.6,50.6,29.74,NNE,22,4.6,4.6,30,0.00,CLR,,0.00,WeatherDisplay:10.37,2013-07-08 05:44:00,
2013-07-08 08:45:00,85.6,50.6,29.74,WNW,292,8.1,8.1,30,0.00,CLR,,0.00,WeatherDisplay:10.37,2013-07-08 05:45:00,
2013-07-08 08:48:00,85.8,49.9,29.74,North,0,5.8,5.8,29,0.00,CLR,,0.00,WeatherDisplay:10.37,2013-07-08 05:48:00,
2013-07-08 08:49:00,85.6,49.7,29.74,North,0,6.2,6.2,29,0.00,CLR,,0.00,WeatherDisplay:10.37,2013-07-08 05:49:00,
2013-07-08 08:50:00,85.8,49.9,29.74,NNW,338,8.1,8.1,29,0.00,CLR,,0.00,WeatherDisplay:10.37,2013-07-08 05:50:00,
2013-07-08 08:53:00,85.6,49.7,29.74,NNW,338,6.2,6.2,29,0.00,CLR,,0.00,WeatherDisplay:10.37,2013-07-08 05:53:00,
2013-07-08 08:54:00,85.8,49.9,29.74,NNW,338,8.1,8.1,29,0.00,CLR,,0.00,WeatherDisplay:10.37,2013-07-08 05:54:00,
2013-07-08 08:55:00,85.6,49.7,29.74,West,270,8.1,8.1,29,0.00,CLR,,0.00,WeatherDisplay:10.37,2013-07-08 05:55:00,
2013-07-08 08:56:00,85.5,49.6,29.74,NW,315,12.7,12.7,29,0.00,CLR,,0.00,WeatherDisplay:10.37,2013-07-08 05:56:00,
2013-07-08 08:58:00,85.8,49.9,29.74,NNW,338,6.9,6.9,29,0.00,CLR,,0.00,WeatherDisplay:10.37,2013-07-08 05:58:00,
2013-07-08 08:59:00,86.0,48.1,29.74,NNW,338,8.5,8.5,27,0.00,CLR,,0.00,WeatherDisplay:10.37,2013-07-08 05:59:00,
2013-07-08 09:00:00,86.0,48.1,29.74,NW,315,8.1,8.1,27,0.00,CLR,,0.00,WeatherDisplay:10.37,2013-07-08 06:00:00,
2013-07-08 09:01:00,86.0,48.1,29.74,NW,315,10.4,10.4,27,0.00,CLR,,0.00,WeatherDisplay:10.37,2013-07-08 06:01:00,
2013-07-08 09:03:00,86.2,48.3,29.74,NNE,22,9.2,9.2,27,0.00,CLR,,0.00,WeatherDisplay:10.37,2013-07-08 06:03:00,
2013-07-08 09:04:00,86.2,48.3,29.74,NE,45,6.9,6.9,27,0.00,CLR,,0.00,WeatherDisplay:10.37,2013-07-08 06:04:00,
2013-07-08 09:05:00,86.4,48.4,29.74,NNW,338,6.9,6.9,27,0.00,CLR,,0.00,WeatherDisplay:10.37,2013-07-08 06:05:00,
2013-07-08 09:06:00,86.7,48.7,29.74,NNW,338,5.6,5.6,27,0.00,CLR,,0.00,WeatherDisplay:10.37,2013-07-08 06:06:00,
2013-07-08 09:08:00,86.7,48.7,29.74,NNW,338,8.1,8.1,27,0.00,CLR,,0.00,WeatherDisplay:10.37,2013-07-08 06:08:00,
2013-07-08 09:09:00,86.9,48.9,29.74,NNW,338,5.8,5.8,27,0.00,CLR,,0.00,WeatherDisplay:10.37,2013-07-08 06:09:00,
2013-07-08 09:10:00,87.1,49.0,29.74,NW,315,5.4,5.4,27,0.00,CLR,,0.00,WeatherDisplay:10.37,2013-07-08 06:10:00,
2013-07-08 09:11:00,87.3,49.2,29.74,NNW,338,5.8,5.8,27,0.00,CLR,,0.00,WeatherDisplay:10.37,2013-07-08 06:11:00,
2013-07-08 09:12:00,87.3,49.2,29.74,NW,315,5.8,5.8,27,0.00,CLR,,0.00,WeatherDisplay:10.37,2013-07-08 06:12:00,
2013-07-08 09:13:00,87.1,49.0,29.74,North,0,7.6,7.6,27,0.00,CLR,,0.00,WeatherDisplay:10.37,2013-07-08 06:13:00,
2013-07-08 09:14:00,87.1,49.0,29.74,NNW,338,10.4,10.4,27,0.00,CLR,,0.00,WeatherDisplay:10.37,2013-07-08 06:14:00,
2013-07-08 09:15:00,86.9,48.9,29.74,WNW,292,10.4,10.4,27,0.00,CLR,,0.00,WeatherDisplay:10.37,2013-07-08 06:15:00,
2013-07-08 09:16:00,86.9,48.9,29.74,NNW,338,10.4,10.4,27,0.00,CLR,,0.00,WeatherDisplay:10.37,2013-07-08 06:16:00,
2013-07-08 09:17:00,86.9,48.9,29.74,NNE,22,12.7,12.7,27,0.00,CLR,,0.00,WeatherDisplay:10.37,2013-07-08 06:17:00,
2013-07-08 09:18:00,86.5,48.6,29.74,North,0,10.4,10.4,27,0.00,CLR,,0.00,WeatherDisplay:10.37,2013-07-08 06:18:00,
2013-07-08 09:19:00,86.5,48.6,29.74,NW,315,14.7,14.7,27,0.00,CLR,,0.00,WeatherDisplay:10.37,2013-07-08 06:19:00,
2013-07-08 09:21:00,86.5,48.6,29.74,NNW,338,15.0,15.0,27,0.00,CLR,,0.00,WeatherDisplay:10.37,2013-07-08 06:21:00,
2013-07-08 09:22:00,86.5,48.6,29.74,NNW,338,15.0,15.0,27,0.00,CLR,,0.00,WeatherDisplay:10.37,2013-07-08 06:22:00,
2013-07-08 09:23:00,86.2,48.3,29.74,NNW,338,10.4,10.4,27,0.00,CLR,,0.00,WeatherDisplay:10.37,2013-07-08 06:23:00,
2013-07-08 09:25:00,86.2,48.3,29.74,North,0,12.7,12.7,27,0.00,CLR,,0.00,WeatherDisplay:10.37,2013-07-08 06:25:00,
2013-07-08 09:26:00,86.2,48.3,29.74,NNE,22,12.7,12.7,27,0.00,CLR,,0.00,WeatherDisplay:10.37,2013-07-08 06:26:00,
2013-07-08 09:27:00,86.2,48.3,29.74,NNW,338,19.7,19.7,27,0.00,CLR,,0.00,WeatherDisplay:10.37,2013-07-08 06:27:00,
2013-07-08 09:29:00,85.6,47.8,29.74,NW,315,13.8,13.8,27,0.00,CLR,,0.00,WeatherDisplay:10.37,2013-07-08 06:29:00,
2013-07-08 09:30:00,85.6,47.8,29.74,NNW,341,10.0,20.0,27,0.00,CLR,,0.00,WeatherDisplay:10.37,2013-07-08 06:30:00,
2013-07-08 09:31:00,85.6,47.8,29.74,WNW,292,13.8,13.8,27,0.00,CLR,,0.00,WeatherDisplay:10.37,2013-07-08 06:31:00,
2013-07-08 09:32:00,85.8,48.0,29.74,NNW,338,10.4,10.4,27,0.00,CLR,,0.00,WeatherDisplay:10.37,2013-07-08 06:32:00,
2013-07-08 09:34:00,85.8,48.0,29.74,NNW,338,15.0,15.0,27,0.00,CLR,,0.00,WeatherDisplay:10.37,2013-07-08 06:34:00,
2013-07-08 09:36:00,85.5,47.7,29.74,West,270,13.8,13.8,27,0.00,CLR,,0.00,WeatherDisplay:10.37,2013-07-08 06:36:00,
2013-07-08 09:37:00,85.6,47.8,29.74,WNW,292,12.1,12.1,27,0.00,CLR,,0.00,WeatherDisplay:10.37,2013-07-08 06:37:00,
2013-07-08 09:38:00,85.8,48.0,29.74,North,0,11.5,11.5,27,0.00,CLR,,0.00,WeatherDisplay:10.37,2013-07-08 06:38:00,
2013-07-08 09:39:00,85.8,48.0,29.74,North,0,15.0,15.0,27,0.00,CLR,,0.00,WeatherDisplay:10.37,2013-07-08 06:39:00,
2013-07-08 09:41:00,85.5,47.7,29.74,NNW,338,17.3,17.3,27,0.00,CLR,,0.00,WeatherDisplay:10.37,2013-07-08 06:41:00,
2013-07-08 09:43:00,85.8,48.0,29.74,NNW,338,12.7,12.7,27,0.00,CLR,,0.00,WeatherDisplay:10.37,2013-07-08 06:43:00,
2013-07-08 09:44:00,86.0,48.1,29.74,NNW,338,10.5,10.5,27,0.00,CLR,,0.00,WeatherDisplay:10.37,2013-07-08 06:44:00,
2013-07-08 09:46:00,86.4,50.3,29.74,NW,315,6.9,6.9,29,0.00,CLR,,0.00,WeatherDisplay:10.37,2013-07-08 06:46:00,
2013-07-08 09:48:00,86.5,50.5,29.74,NNW,338,11.5,11.5,29,0.00,CLR,,0.00,WeatherDisplay:10.37,2013-07-08 06:48:00,
2013-07-08 09:50:00,87.1,49.0,29.74,NNW,338,6.9,6.9,27,0.00,CLR,,0.00,WeatherDisplay:10.37,2013-07-08 06:50:00,
2013-07-08 09:51:00,86.7,48.7,29.74,NE,45,11.5,11.5,27,0.00,CLR,,0.00,WeatherDisplay:10.37,2013-07-08 06:51:00,
2013-07-08 09:52:00,86.4,48.4,29.74,NNW,338,12.7,12.7,27,0.00,CLR,,0.00,WeatherDisplay:10.37,2013-07-08 06:52:00,
2013-07-08 09:53:00,86.7,50.7,29.74,NW,315,10.4,10.4,29,0.00,CLR,,0.00,WeatherDisplay:10.37,2013-07-08 06:53:00,
2013-07-08 09:54:00,86.7,48.7,29.74,NW,315,10.4,10.4,27,0.00,CLR,,0.00,WeatherDisplay:10.37,2013-07-08 06:54:00,
2013-07-08 09:55:00,87.1,51.0,29.74,NW,315,9.4,9.4,29,0.00,CLR,,0.00,WeatherDisplay:10.37,2013-07-08 06:55:00,
2013-07-08 09:56:00,87.1,49.0,29.74,WNW,292,9.2,9.2,27,0.00,CLR,,0.00,WeatherDisplay:10.37,2013-07-08 06:56:00,
2013-07-08 09:57:00,87.6,49.5,29.74,NNW,338,6.9,6.9,27,0.00,CLR,,0.00,WeatherDisplay:10.37,2013-07-08 06:57:00,
2013-07-08 09:58:00,87.6,49.5,29.74,NW,315,6.2,6.2,27,0.00,CLR,,0.00,WeatherDisplay:10.37,2013-07-08 06:58:00,
2013-07-08 09:59:00,87.6,49.5,29.74,NNW,338,8.1,8.1,27,0.00,CLR,,0.00,WeatherDisplay:10.37,2013-07-08 06:59:00,
2013-07-08 10:00:00,87.6,49.5,29.74,NW,315,10.4,10.4,27,0.00,CLR,,0.00,WeatherDisplay:10.37,2013-07-08 07:00:00,
2013-07-08 10:01:00,87.6,49.5,29.74,NNW,338,9.2,9.2,27,0.00,CLR,,0.00,WeatherDisplay:10.37,2013-07-08 07:01:00,
2013-07-08 10:03:00,87.3,49.2,29.74,NW,315,9.2,9.2,27,0.00,CLR,,0.00,WeatherDisplay:10.37,2013-07-08 07:03:00,
2013-07-08 10:04:00,87.3,49.2,29.74,NNE,22,10.2,10.2,27,0.00,CLR,,0.00,WeatherDisplay:10.37,2013-07-08 07:04:00,
2013-07-08 10:06:00,87.1,49.0,29.74,WNW,292,12.7,12.7,27,0.00,CLR,,0.00,WeatherDisplay:10.37,2013-07-08 07:06:00,
2013-07-08 10:08:00,87.6,49.5,29.74,NNW,338,9.2,9.2,27,0.00,CLR,,0.00,WeatherDisplay:10.37,2013-07-08 07:08:00,
2013-07-08 10:09:00,87.4,49.3,29.74,NNW,338,11.5,11.5,27,0.00,CLR,,0.00,WeatherDisplay:10.37,2013-07-08 07:09:00,
2013-07-08 10:11:00,87.3,49.2,29.74,North,0,12.7,12.7,27,0.00,CLR,,0.00,WeatherDisplay:10.37,2013-07-08 07:11:00,
2013-07-08 10:12:00,87.3,49.2,29.74,NNW,338,12.7,12.7,27,0.00,CLR,,0.00,WeatherDisplay:10.37,2013-07-08 07:12:00,
2013-07-08 10:13:00,87.8,48.6,29.74,NNW,338,9.2,9.2,26,0.00,CLR,,0.00,WeatherDisplay:10.37,2013-07-08 07:13:00,
2013-07-08 10:14:00,88.2,48.9,29.74,WNW,292,6.2,6.2,26,0.00,CLR,,0.00,WeatherDisplay:10.37,2013-07-08 07:14:00,
2013-07-08 10:16:00,87.8,48.6,29.74,NW,315,13.0,13.0,26,0.00,CLR,,0.00,WeatherDisplay:10.37,2013-07-08 07:16:00,
2013-07-08 10:17:00,87.4,49.3,29.74,NNW,338,12.7,12.7,27,0.00,CLR,,0.00,WeatherDisplay:10.37,2013-07-08 07:17:00,
2013-07-08 10:19:00,88.2,48.9,29.74,NNW,338,11.5,11.5,26,0.00,CLR,,0.00,WeatherDisplay:10.37,2013-07-08 07:19:00,
2013-07-08 10:22:00,88.2,48.9,29.74,NNW,338,6.9,6.9,26,0.00,CLR,,0.00,WeatherDisplay:10.37,2013-07-08 07:22:00,
2013-07-08 10:24:00,87.8,48.6,29.74,NNW,338,12.7,12.7,26,0.00,CLR,,0.00,WeatherDisplay:10.37,2013-07-08 07:24:00,
2013-07-08 10:25:00,87.6,49.5,29.74,NNW,338,12.7,12.7,27,0.00,CLR,,0.00,WeatherDisplay:10.37,2013-07-08 07:25:00,
2013-07-08 10:27:00,88.3,49.1,29.74,NNW,338,6.9,6.9,26,0.00,CLR,,0.00,WeatherDisplay:10.37,2013-07-08 07:27:00,
2013-07-08 10:28:00,88.3,49.1,29.74,NNW,338,11.5,11.5,26,0.00,CLR,,0.00,WeatherDisplay:10.37,2013-07-08 07:28:00,
2013-07-08 10:29:00,88.5,49.3,29.74,NE,45,8.1,8.1,26,0.00,CLR,,0.00,WeatherDisplay:10.37,2013-07-08 07:29:00,
2013-07-08 10:30:00,88.5,49.3,29.74,NNW,342,7.0,12.0,26,0.00,CLR,,0.00,WeatherDisplay:10.37,2013-07-08 07:30:00,
2013-07-08 10:32:00,88.7,49.4,29.74,NW,315,11.5,11.5,26,0.00,CLR,,0.00,WeatherDisplay:10.37,2013-07-08 07:32:00,
2013-07-08 10:33:00,88.7,49.4,29.74,West,270,10.4,10.4,26,0.00,CLR,,0.00,WeatherDisplay:10.37,2013-07-08 07:33:00,
2013-07-08 10:35:00,88.7,49.4,29.74,NW,315,12.8,12.8,26,0.00,CLR,,0.00,WeatherDisplay:10.37,2013-07-08 07:35:00,
2013-07-08 10:37:00,88.2,48.9,29.74,WNW,292,13.8,13.8,26,0.00,CLR,,0.00,WeatherDisplay:10.37,2013-07-08 07:37:00,
2013-07-08 10:38:00,88.5,49.3,29.74,NNW,338,10.4,10.4,26,0.00,CLR,,0.00,WeatherDisplay:10.37,2013-07-08 07:38:00,
2013-07-08 10:40:00,88.5,49.3,29.74,WNW,292,9.2,9.2,26,0.00,CLR,,0.00,WeatherDisplay:10.37,2013-07-08 07:40:00,
2013-07-08 10:42:00,88.9,49.6,29.74,NNE,22,7.1,7.1,26,0.00,CLR,,0.00,WeatherDisplay:10.37,2013-07-08 07:42:00,
2013-07-08 10:43:00,88.9,47.4,29.74,WNW,292,8.1,8.1,24,0.00,CLR,,0.00,WeatherDisplay:10.37,2013-07-08 07:43:00,
2013-07-08 10:45:00,89.2,49.9,29.74,NNW,338,11.5,11.5,26,0.00,CLR,,0.00,WeatherDisplay:10.37,2013-07-08 07:45:00,
2013-07-08 10:47:00,89.2,47.7,29.74,NNE,22,12.1,12.1,24,0.00,CLR,,0.00,WeatherDisplay:10.37,2013-07-08 07:47:00,
2013-07-08 10:48:00,88.9,47.4,29.74,NNW,338,11.5,11.5,24,0.00,CLR,,0.00,WeatherDisplay:10.37,2013-07-08 07:48:00,
2013-07-08 10:50:00,88.3,47.0,29.74,NNW,338,17.3,17.3,24,0.00,CLR,,0.00,WeatherDisplay:10.37,2013-07-08 07:50:00,
2013-07-08 10:51:00,88.7,47.3,29.74,NNW,338,16.1,16.1,24,0.00,CLR,,0.00,WeatherDisplay:10.37,2013-07-08 07:51:00,
2013-07-08 10:52:00,88.5,47.1,29.74,NNW,338,11.5,11.5,24,0.00,CLR,,0.00,WeatherDisplay:10.37,2013-07-08 07:52:00,
2013-07-08 10:53:00,89.1,47.6,29.74,SSW,202,10.4,10.4,24,0.00,CLR,,0.00,WeatherDisplay:10.37,2013-07-08 07:53:00,
2013-07-08 10:55:00,89.1,47.6,29.74,NNW,338,12.7,12.7,24,0.00,CLR,,0.00,WeatherDisplay:10.37,2013-07-08 07:55:00,
2013-07-08 10:56:00,88.9,47.4,29.74,North,0,15.0,15.0,24,0.00,CLR,,0.00,WeatherDisplay:10.37,2013-07-08 07:56:00,
2013-07-08 10:57:00,88.5,47.1,29.74,NNE,22,15.0,15.0,24,0.00,CLR,,0.00,WeatherDisplay:10.37,2013-07-08 07:57:00,
2013-07-08 10:58:00,88.7,47.3,29.74,NNW,338,14.5,14.5,24,0.00,CLR,,0.00,WeatherDisplay:10.37,2013-07-08 07:58:00,
2013-07-08 11:00:00,88.9,47.4,29.74,NNW,338,10.4,10.4,24,0.00,CLR,,0.00,WeatherDisplay:10.37,2013-07-08 08:00:00,
2013-07-08 11:01:00,88.9,47.4,29.74,NNW,338,8.1,8.1,24,0.00,CLR,,0.00,WeatherDisplay:10.37,2013-07-08 08:01:00,
2013-07-08 11:03:00,89.4,47.9,29.74,WSW,248,9.2,9.2,24,0.00,CLR,,0.00,WeatherDisplay:10.37,2013-07-08 08:03:00,
2013-07-08 11:05:00,90.0,47.2,29.74,NNW,338,9.2,9.2,23,0.00,CLR,,0.00,WeatherDisplay:10.37,2013-07-08 08:05:00,
2013-07-08 11:06:00,90.0,47.2,29.74,NW,315,12.7,12.7,23,0.00,CLR,,0.00,WeatherDisplay:10.37,2013-07-08 08:06:00,
2013-07-08 11:08:00,90.1,47.3,29.74,NW,315,8.1,8.1,23,0.00,CLR,,0.00,WeatherDisplay:10.37,2013-07-08 08:08:00,
2013-07-08 11:09:00,90.1,47.3,29.74,WNW,292,12.7,12.7,23,0.00,CLR,,0.00,WeatherDisplay:10.37,2013-07-08 08:09:00,
2013-07-08 11:10:00,90.0,47.2,29.74,NNW,338,12.7,12.7,23,0.00,CLR,,0.00,WeatherDisplay:10.37,2013-07-08 08:10:00,
2013-07-08 11:11:00,90.1,47.3,29.74,NNW,338,10.4,10.4,23,0.00,CLR,,0.00,WeatherDisplay:10.37,2013-07-08 08:11:00,
2013-07-08 11:13:00,89.8,47.0,29.74,North,0,13.8,13.8,23,0.00,CLR,,0.00,WeatherDisplay:10.37,2013-07-08 08:13:00,
2013-07-08 11:14:00,89.8,47.0,29.74,NNE,22,15.0,15.0,23,0.00,CLR,,0.00,WeatherDisplay:10.37,2013-07-08 08:14:00,
2013-07-08 11:16:00,90.5,47.6,29.74,WNW,292,8.7,8.7,23,0.00,CLR,,0.00,WeatherDisplay:10.37,2013-07-08 08:16:00,
2013-07-08 11:17:00,90.9,47.9,29.74,NNW,338,9.2,9.2,23,0.00,CLR,,0.00,WeatherDisplay:10.37,2013-07-08 08:17:00,
2013-07-08 11:19:00,90.7,47.8,29.74,NW,315,11.5,11.5,23,0.00,CLR,,0.00,WeatherDisplay:10.37,2013-07-08 08:19:00,
2013-07-08 11:20:00,90.0,47.2,29.74,NNW,338,15.0,15.0,23,0.00,CLR,,0.00,WeatherDisplay:10.37,2013-07-08 08:20:00,
2013-07-08 11:21:00,90.0,47.2,29.74,West,270,15.0,15.0,23,0.00,CLR,,0.00,WeatherDisplay:10.37,2013-07-08 08:21:00,
2013-07-08 11:22:00,90.1,47.3,29.74,WNW,292,11.5,11.5,23,0.00,CLR,,0.00,WeatherDisplay:10.37,2013-07-08 08:22:00,
2013-07-08 11:23:00,90.0,47.2,29.74,North,0,10.4,10.4,23,0.00,CLR,,0.00,WeatherDisplay:10.37,2013-07-08 08:23:00,
2013-07-08 11:24:00,90.7,47.8,29.74,North,0,9.8,9.8,23,0.00,CLR,,0.00,WeatherDisplay:10.37,2013-07-08 08:24:00,
2013-07-08 11:25:00,90.0,47.2,29.74,NNW,338,13.8,13.8,23,0.00,CLR,,0.00,WeatherDisplay:10.37,2013-07-08 08:25:00,
2013-07-08 11:26:00,90.1,47.3,29.74,NNW,338,11.5,11.5,23,0.00,CLR,,0.00,WeatherDisplay:10.37,2013-07-08 08:26:00,
2013-07-08 11:27:00,90.1,47.3,29.74,WNW,292,10.4,10.4,23,0.00,CLR,,0.00,WeatherDisplay:10.37,2013-07-08 08:27:00,
2013-07-08 11:28:00,90.3,47.5,29.74,NE,45,10.4,10.4,23,0.00,CLR,,0.00,WeatherDisplay:10.37,2013-07-08 08:28:00,
2013-07-08 11:29:00,90.7,47.8,29.74,NNW,338,8.1,8.1,23,0.00,CLR,,0.00,WeatherDisplay:10.37,2013-07-08 08:29:00,
2013-07-08 11:30:00,90.3,47.5,29.74,North,0,11.5,11.5,23,0.00,CLR,,0.00,WeatherDisplay:10.37,2013-07-08 08:30:00,
2013-07-08 11:31:00,90.1,47.3,29.74,North,0,10.4,10.4,23,0.00,CLR,,0.00,WeatherDisplay:10.37,2013-07-08 08:31:00,
2013-07-08 11:32:00,90.1,47.3,29.74,NW,315,17.3,17.3,23,0.00,CLR,,0.00,WeatherDisplay:10.37,2013-07-08 08:32:00,
2013-07-08 11:33:00,90.0,47.2,29.74,NW,315,12.7,12.7,23,0.00,CLR,,0.00,WeatherDisplay:10.37,2013-07-08 08:33:00,
2013-07-08 11:34:00,90.0,47.2,29.74,NW,315,12.7,12.7,23,0.00,CLR,,0.00,WeatherDisplay:10.37,2013-07-08 08:34:00,
2013-07-08 11:36:00,90.3,47.5,29.74,East,90,10.4,10.4,23,0.00,CLR,,0.00,WeatherDisplay:10.37,2013-07-08 08:36:00,
2013-07-08 11:37:00,90.3,47.5,29.74,NNW,338,10.4,10.4,23,0.00,CLR,,0.00,WeatherDisplay:10.37,2013-07-08 08:37:00,
2013-07-08 11:38:00,90.9,47.9,29.74,NW,315,10.4,10.4,23,0.00,CLR,,0.00,WeatherDisplay:10.37,2013-07-08 08:38:00,
2013-07-08 11:40:00,90.3,47.5,29.74,NNW,338,12.8,12.8,23,0.00,CLR,,0.00,WeatherDisplay:10.37,2013-07-08 08:40:00,
2013-07-08 11:41:00,90.3,47.5,29.74,NW,315,12.7,12.7,23,0.00,CLR,,0.00,WeatherDisplay:10.37,2013-07-08 08:41:00,
2013-07-08 11:42:00,90.5,47.6,29.74,NNW,338,10.4,10.4,23,0.00,CLR,,0.00,WeatherDisplay:10.37,2013-07-08 08:42:00,
2013-07-08 11:43:00,90.7,47.8,29.74,West,270,10.4,10.4,23,0.00,CLR,,0.00,WeatherDisplay:10.37,2013-07-08 08:43:00,
2013-07-08 11:45:00,91.2,48.2,29.74,NNW,338,10.4,10.4,23,0.00,CLR,,0.00,WeatherDisplay:10.37,2013-07-08 08:45:00,
2013-07-08 11:46:00,91.2,48.2,29.74,NNW,338,8.5,8.5,23,0.00,CLR,,0.00,WeatherDisplay:10.37,2013-07-08 08:46:00,
2013-07-08 11:47:00,90.9,47.9,29.74,NNW,338,12.7,12.7,23,0.00,CLR,,0.00,WeatherDisplay:10.37,2013-07-08 08:47:00,
2013-07-08 11:48:00,91.0,48.1,29.74,NW,315,12.7,12.7,23,0.00,CLR,,0.00,WeatherDisplay:10.37,2013-07-08 08:48:00,
2013-07-08 11:49:00,91.0,48.1,29.74,WNW,292,10.4,10.4,23,0.00,CLR,,0.00,WeatherDisplay:10.37,2013-07-08 08:49:00,
2013-07-08 11:51:00,91.2,48.2,29.74,NNW,338,8.1,8.1,23,0.00,CLR,,0.00,WeatherDisplay:10.37,2013-07-08 08:51:00,
2013-07-08 11:52:00,91.2,48.2,29.74,NNW,338,12.7,12.7,23,0.00,CLR,,0.00,WeatherDisplay:10.37,2013-07-08 08:52:00,
2013-07-08 11:53:00,91.2,48.2,29.74,NNW,338,13.0,13.0,23,0.00,CLR,,0.00,WeatherDisplay:10.37,2013-07-08 08:53:00,
2013-07-08 11:54:00,90.9,47.9,29.74,WNW,292,14.3,14.3,23,0.00,CLR,,0.00,WeatherDisplay:10.37,2013-07-08 08:54:00,
2013-07-08 11:57:00,90.9,47.9,29.74,WNW,292,15.0,15.0,23,0.00,CLR,,0.00,WeatherDisplay:10.37,2013-07-08 08:57:00,
2013-07-08 11:58:00,90.9,47.9,29.74,NW,315,12.7,12.7,23,0.00,CLR,,0.00,WeatherDisplay:10.37,2013-07-08 08:58:00,
2013-07-08 11:59:00,91.2,48.2,29.74,NNW,338,12.7,12.7,23,0.00,CLR,,0.00,WeatherDisplay:10.37,2013-07-08 08:59:00,
2013-07-08 12:02:00,90.9,47.9,29.74,NNW,338,8.1,9.8,23,0.00,CLR,,0.00,WeatherDisplay:10.37,2013-07-08 09:02:00,
2013-07-08 12:03:00,91.2,48.2,29.74,North,0,16.1,16.1,23,0.00,CLR,,0.00,WeatherDisplay:10.37,2013-07-08 09:03:00,
2013-07-08 12:04:00,91.6,48.5,29.74,NNW,338,16.1,16.1,23,0.00,CLR,,0.00,WeatherDisplay:10.37,2013-07-08 09:04:00,
2013-07-08 12:07:00,91.8,48.7,29.74,North,0,8.7,8.7,23,0.00,CLR,,0.00,WeatherDisplay:10.37,2013-07-08 09:07:00,
2013-07-08 12:08:00,91.6,48.5,29.74,NNE,22,12.7,12.7,23,0.00,CLR,,0.00,WeatherDisplay:10.37,2013-07-08 09:08:00,
2013-07-08 12:10:00,91.6,48.5,29.74,NNW,338,12.7,12.7,23,0.00,CLR,,0.00,WeatherDisplay:10.37,2013-07-08 09:10:00,
2013-07-08 12:12:00,91.9,48.8,29.74,NNE,22,11.5,11.5,23,0.00,CLR,,0.00,WeatherDisplay:10.37,2013-07-08 09:12:00,
2013-07-08 12:14:00,91.6,48.5,29.74,North,0,12.7,12.7,23,0.00,CLR,,0.00,WeatherDisplay:10.37,2013-07-08 09:14:00,
2013-07-08 12:16:00,91.2,48.2,29.74,North,0,10.4,10.4,23,0.00,CLR,,0.00,WeatherDisplay:10.37,2013-07-08 09:16:00,
2013-07-08 12:17:00,91.6,48.5,29.74,North,0,12.7,12.7,23,0.00,CLR,,0.00,WeatherDisplay:10.37,2013-07-08 09:17:00,
2013-07-08 12:18:00,91.6,48.5,29.74,NNW,338,12.7,12.7,23,0.00,CLR,,0.00,WeatherDisplay:10.37,2013-07-08 09:18:00,
2013-07-08 12:19:00,91.8,48.7,29.74,WNW,292,6.9,6.9,23,0.00,CLR,,0.00,WeatherDisplay:10.37,2013-07-08 09:19:00,
2013-07-08 12:21:00,92.1,49.0,29.74,NNW,338,6.9,6.9,23,0.00,CLR,,0.00,WeatherDisplay:10.37,2013-07-08 09:21:00,
2013-07-08 12:23:00,91.9,48.8,29.74,NNW,338,12.8,12.8,23,0.00,CLR,,0.00,WeatherDisplay:10.37,2013-07-08 09:23:00,
2013-07-08 12:24:00,91.8,48.7,29.74,WNW,292,12.7,12.7,23,0.00,CLR,,0.00,WeatherDisplay:10.37,2013-07-08 09:24:00,
2013-07-08 12:27:00,91.4,48.4,29.74,North,0,13.8,13.8,23,0.00,CLR,,0.00,WeatherDisplay:10.37,2013-07-08 09:27:00,
2013-07-08 12:28:00,91.2,48.2,29.74,NNE,22,13.8,13.8,23,0.00,CLR,,0.00,WeatherDisplay:10.37,2013-07-08 09:28:00,
2013-07-08 12:29:00,91.9,48.8,29.74,North,0,10.4,10.4,23,0.00,CLR,,0.00,WeatherDisplay:10.37,2013-07-08 09:29:00,
2013-07-08 12:32:00,91.8,48.7,29.74,NNW,338,10.5,10.5,23,0.00,CLR,,0.00,WeatherDisplay:10.37,2013-07-08 09:32:00,
2013-07-08 12:33:00,91.4,48.4,29.74,NE,45,12.7,12.7,23,0.00,CLR,,0.00,WeatherDisplay:10.37,2013-07-08 09:33:00,
2013-07-08 12:34:00,91.9,48.8,29.74,North,0,12.7,12.7,23,0.00,CLR,,0.00,WeatherDisplay:10.37,2013-07-08 09:34:00,
2013-07-08 12:37:00,91.6,48.5,29.74,NNE,22,13.8,13.8,23,0.00,CLR,,0.00,WeatherDisplay:10.37,2013-07-08 09:37:00,
2013-07-08 12:38:00,91.6,48.5,29.74,NNW,338,12.3,12.3,23,0.00,CLR,,0.00,WeatherDisplay:10.37,2013-07-08 09:38:00,
2013-07-08 12:39:00,91.6,48.5,29.74,NNW,338,15.0,15.0,23,0.00,CLR,,0.00,WeatherDisplay:10.37,2013-07-08 09:39:00,
2013-07-08 12:42:00,91.8,48.7,29.74,NNE,22,9.2,9.2,23,0.00,CLR,,0.00,WeatherDisplay:10.37,2013-07-08 09:42:00,
2013-07-08 12:44:00,91.6,48.5,29.74,NNE,22,10.4,10.4,23,0.00,CLR,,0.00,WeatherDisplay:10.37,2013-07-08 09:44:00,
2013-07-08 12:45:00,91.6,48.5,29.74,North,357,9.0,13.0,23,0.00,CLR,,0.00,WeatherDisplay:10.37,2013-07-08 09:45:00,
2013-07-08 12:47:00,90.9,47.9,29.74,North,0,13.8,13.8,23,0.00,CLR,,0.00,WeatherDisplay:10.37,2013-07-08 09:47:00,
2013-07-08 12:49:00,91.2,48.2,29.74,North,0,13.8,13.8,23,0.00,CLR,,0.00,WeatherDisplay:10.37,2013-07-08 09:49:00,
2013-07-08 12:50:00,90.7,47.8,29.74,NNW,338,16.1,16.1,23,0.00,CLR,,0.00,WeatherDisplay:10.37,2013-07-08 09:50:00,
2013-07-08 12:52:00,90.5,47.6,29.74,NNE,22,13.8,13.8,23,0.00,CLR,,0.00,WeatherDisplay:10.37,2013-07-08 09:52:00,
2013-07-08 12:54:00,90.9,47.9,29.74,NNE,22,10.9,10.9,23,0.00,CLR,,0.00,WeatherDisplay:10.37,2013-07-08 09:54:00,
2013-07-08 12:55:00,90.9,47.9,29.74,North,356,8.0,20.0,23,0.00,CLR,,0.00,WeatherDisplay:10.37,2013-07-08 09:55:00,
2013-07-08 12:56:00,90.7,47.8,29.74,NNW,338,12.7,12.7,23,0.00,CLR,,0.00,WeatherDisplay:10.37,2013-07-08 09:56:00,
2013-07-08 12:58:00,91.4,48.4,29.74,NNW,338,8.1,8.1,23,0.00,CLR,,0.00,WeatherDisplay:10.37,2013-07-08 09:58:00,
2013-07-08 12:59:00,91.4,48.4,29.74,NNW,338,10.2,10.2,23,0.00,CLR,,0.00,WeatherDisplay:10.37,2013-07-08 09:59:00,
2013-07-08 13:00:00,91.5,48.5,29.74,NNW,346,8.0,13.0,23,0.00,CLR,,0.00,WeatherDisplay:10.37,2013-07-08 10:00:00,
2013-07-08 13:01:00,91.4,48.4,29.74,NNE,22,12.7,12.7,23,0.00,CLR,,0.00,WeatherDisplay:10.37,2013-07-08 10:01:00,
2013-07-08 13:03:00,91.4,48.4,29.74,WNW,292,11.5,11.5,23,0.00,CLR,,0.00,WeatherDisplay:10.37,2013-07-08 10:03:00,
2013-07-08 13:04:00,91.9,48.8,29.74,NNW,338,10.7,10.7,23,0.00,CLR,,0.00,WeatherDisplay:10.37,2013-07-08 10:04:00,
2013-07-08 13:05:00,91.9,48.8,29.74,NNW,338,12.7,12.7,23,0.00,CLR,,0.00,WeatherDisplay:10.37,2013-07-08 10:05:00,
2013-07-08 13:06:00,91.0,48.1,29.74,NNW,338,12.7,12.7,23,0.00,CLR,,0.00,WeatherDisplay:10.37,2013-07-08 10:06:00,
2013-07-08 13:08:00,91.4,48.4,29.71,NW,315,17.3,17.3,23,0.00,CLR,,0.00,WeatherDisplay:10.37,2013-07-08 10:08:00,
2013-07-08 13:09:00,91.4,48.4,29.71,North,0,11.5,11.5,23,0.00,CLR,,0.00,WeatherDisplay:10.37,2013-07-08 10:09:00,
2013-07-08 13:10:00,91.4,48.4,29.71,NNE,22,12.8,12.8,23,0.00,CLR,,0.00,WeatherDisplay:10.37,2013-07-08 10:10:00,
2013-07-08 13:11:00,91.8,48.7,29.71,NNW,338,12.7,12.7,23,0.00,CLR,,0.00,WeatherDisplay:10.37,2013-07-08 10:11:00,
2013-07-08 13:13:00,91.9,48.8,29.71,NNE,22,12.7,12.7,23,0.00,CLR,,0.00,WeatherDisplay:10.37,2013-07-08 10:13:00,
2013-07-08 13:14:00,91.9,48.8,29.71,NNW,338,12.7,12.7,23,0.00,CLR,,0.00,WeatherDisplay:10.37,2013-07-08 10:14:00,
2013-07-08 13:15:00,91.9,48.8,29.71,NNE,22,9.2,9.2,23,0.00,CLR,,0.00,WeatherDisplay:10.37,2013-07-08 10:15:00,
2013-07-08 13:16:00,92.7,49.4,29.71,West,270,8.1,8.1,23,0.00,CLR,,0.00,WeatherDisplay:10.37,2013-07-08 10:16:00,
2013-07-08 13:17:00,92.8,49.6,29.71,NNW,338,8.5,8.5,23,0.00,CLR,,0.00,WeatherDisplay:10.37,2013-07-08 10:17:00,
2013-07-08 13:18:00,92.8,49.6,29.71,NNW,338,8.1,8.1,23,0.00,CLR,,0.00,WeatherDisplay:10.37,2013-07-08 10:18:00,
2013-07-08 13:19:00,92.8,49.6,29.71,NNW,338,10.4,10.4,23,0.00,CLR,,0.00,WeatherDisplay:10.37,2013-07-08 10:19:00,
2013-07-08 13:20:00,93.0,49.7,29.71,NNW,338,10.2,10.2,23,0.00,CLR,,0.00,WeatherDisplay:10.37,2013-07-08 10:20:00,
2013-07-08 13:21:00,92.3,49.1,29.71,NNE,22,13.0,13.0,23,0.00,CLR,,0.00,WeatherDisplay:10.37,2013-07-08 10:21:00,
2013-07-08 13:22:00,92.3,49.1,29.71,North,0,12.7,12.7,23,0.00,CLR,,0.00,WeatherDisplay:10.37,2013-07-08 10:22:00,
2013-07-08 13:24:00,93.0,49.7,29.74,North,0,9.2,9.2,23,0.00,CLR,,0.00,WeatherDisplay:10.37,2013-07-08 10:24:00,
2013-07-08 13:25:00,92.8,49.6,29.74,NNW,338,16.1,16.1,23,0.00,CLR,,0.00,WeatherDisplay:10.37,2013-07-08 10:25:00,
2013-07-08 13:26:00,92.7,49.4,29.74,NNW,338,16.1,16.1,23,0.00,CLR,,0.00,WeatherDisplay:10.37,2013-07-08 10:26:00,
2013-07-08 13:27:00,92.3,49.1,29.74,NW,315,11.5,11.5,23,0.00,CLR,,0.00,WeatherDisplay:10.37,2013-07-08 10:27:00,
2013-07-08 13:29:00,92.7,49.4,29.74,WNW,292,13.8,13.8,23,0.00,CLR,,0.00,WeatherDisplay:10.37,2013-07-08 10:29:00,
2013-07-08 13:31:00,93.0,49.7,29.74,NNW,338,8.1,8.1,23,0.00,CLR,,0.00,WeatherDisplay:10.37,2013-07-08 10:31:00,
2013-07-08 13:33:00,92.5,49.3,29.74,NNW,338,11.5,11.5,23,0.00,CLR,,0.00,WeatherDisplay:10.37,2013-07-08 10:33:00,
2013-07-08 13:35:00,91.9,48.8,29.74,NNW,341,12.0,14.0,23,0.00,CLR,,0.00,WeatherDisplay:10.37,2013-07-08 10:35:00,
2013-07-08 13:36:00,91.9,48.8,29.74,NNW,338,10.4,10.4,23,0.00,CLR,,0.00,WeatherDisplay:10.37,2013-07-08 10:36:00,
2013-07-08 13:38:00,92.1,49.0,29.74,North,0,9.2,9.2,23,0.00,CLR,,0.00,WeatherDisplay:10.37,2013-07-08 10:38:00,
2013-07-08 13:40:00,92.1,49.0,29.74,NNE,22,10.5,10.5,23,0.00,CLR,,0.00,WeatherDisplay:10.37,2013-07-08 10:40:00,
2013-07-08 13:41:00,92.1,49.0,29.74,NNW,338,11.5,11.5,23,0.00,CLR,,0.00,WeatherDisplay:10.37,2013-07-08 10:41:00,
2013-07-08 13:42:00,92.1,49.0,29.74,NW,315,10.4,10.4,23,0.00,CLR,,0.00,WeatherDisplay:10.37,2013-07-08 10:42:00,
2013-07-08 13:43:00,92.3,49.1,29.74,NNW,338,10.4,10.4,23,0.00,CLR,,0.00,WeatherDisplay:10.37,2013-07-08 10:43:00,
2013-07-08 13:45:00,92.7,49.4,29.74,North,0,12.7,12.7,23,0.00,CLR,,0.00,WeatherDisplay:10.37,2013-07-08 10:45:00,
2013-07-08 13:46:00,92.8,49.6,29.74,NE,45,12.7,12.7,23,0.00,CLR,,0.00,WeatherDisplay:10.37,2013-07-08 10:46:00,
2013-07-08 13:47:00,92.5,49.3,29.74,NW,315,13.8,13.8,23,0.00,CLR,,0.00,WeatherDisplay:10.37,2013-07-08 10:47:00,
2013-07-08 13:48:00,91.9,48.8,29.74,NW,315,10.9,10.9,23,0.00,CLR,,0.00,WeatherDisplay:10.37,2013-07-08 10:48:00,
2013-07-08 13:50:00,92.1,49.0,29.74,WNW,292,13.8,13.8,23,0.00,CLR,,0.00,WeatherDisplay:10.37,2013-07-08 10:50:00,
2013-07-08 13:51:00,92.5,49.3,29.74,North,0,8.1,8.1,23,0.00,CLR,,0.00,WeatherDisplay:10.37,2013-07-08 10:51:00,
2013-07-08 13:52:00,92.7,49.4,29.74,NNW,338,8.1,8.1,23,0.00,CLR,,0.00,WeatherDisplay:10.37,2013-07-08 10:52:00,
2013-07-08 13:53:00,92.5,49.3,29.74,NNW,338,13.0,13.0,23,0.00,CLR,,0.00,WeatherDisplay:10.37,2013-07-08 10:53:00,
2013-07-08 13:55:00,92.1,49.0,29.74,NNE,22,10.7,10.7,23,0.00,CLR,,0.00,WeatherDisplay:10.37,2013-07-08 10:55:00,
2013-07-08 13:56:00,92.3,49.1,29.74,NNW,338,11.5,11.5,23,0.00,CLR,,0.00,WeatherDisplay:10.37,2013-07-08 10:56:00,
2013-07-08 13:57:00,92.5,49.3,29.74,NNW,338,12.7,12.7,23,0.00,CLR,,0.00,WeatherDisplay:10.37,2013-07-08 10:57:00,
2013-07-08 13:58:00,92.5,49.3,29.74,NNE,22,8.1,8.1,23,0.00,CLR,,0.00,WeatherDisplay:10.37,2013-07-08 10:58:00,
2013-07-08 14:00:00,93.2,48.7,29.74,WNW,292,8.1,8.1,22,0.00,CLR,,0.00,WeatherDisplay:10.37,2013-07-08 11:00:00,
2013-07-08 14:01:00,92.8,49.6,29.74,NNW,338,12.3,12.3,23,0.00,CLR,,0.00,WeatherDisplay:10.37,2013-07-08 11:01:00,
2013-07-08 14:02:00,92.7,49.4,29.74,NNW,338,12.7,12.7,23,0.00,CLR,,0.00,WeatherDisplay:10.37,2013-07-08 11:02:00,
2013-07-08 14:03:00,92.5,49.3,29.74,NNE,22,13.8,13.8,23,0.00,CLR,,0.00,WeatherDisplay:10.37,2013-07-08 11:03:00,
2013-07-08 14:05:00,93.2,48.7,29.74,NNW,338,9.2,9.2,22,0.00,CLR,,0.00,WeatherDisplay:10.37,2013-07-08 11:05:00,
2013-07-08 14:07:00,93.7,49.1,29.74,North,0,5.8,5.8,22,0.00,CLR,,0.00,WeatherDisplay:10.37,2013-07-08 11:07:00,
2013-07-08 14:08:00,93.7,49.1,29.74,North,0,10.4,10.4,22,0.00,CLR,,0.00,WeatherDisplay:10.37,2013-07-08 11:08:00,
2013-07-08 14:09:00,93.6,49.0,29.74,NNW,338,10.4,10.4,22,0.00,CLR,,0.00,WeatherDisplay:10.37,2013-07-08 11:09:00,
2013-07-08 14:11:00,93.9,49.3,29.74,NNE,22,10.4,10.4,22,0.00,CLR,,0.00,WeatherDisplay:10.37,2013-07-08 11:11:00,
2013-07-08 14:12:00,93.9,49.3,29.74,WNW,292,9.2,9.2,22,0.00,CLR,,0.00,WeatherDisplay:10.37,2013-07-08 11:12:00,
2013-07-08 14:13:00,93.7,49.1,29.74,North,0,10.5,10.5,22,0.00,CLR,,0.00,WeatherDisplay:10.37,2013-07-08 11:13:00,
2013-07-08 14:14:00,93.9,49.3,29.74,NNE,22,12.7,12.7,22,0.00,CLR,,0.00,WeatherDisplay:10.37,2013-07-08 11:14:00,
2013-07-08 14:16:00,93.7,49.1,29.74,NNW,338,8.1,8.1,22,0.00,CLR,,0.00,WeatherDisplay:10.37,2013-07-08 11:16:00,
2013-07-08 14:17:00,93.9,49.3,29.74,ENE,68,10.5,10.5,22,0.00,CLR,,0.00,WeatherDisplay:10.37,2013-07-08 11:17:00,
2013-07-08 14:18:00,94.3,49.6,29.74,NW,315,10.4,10.4,22,0.00,CLR,,0.00,WeatherDisplay:10.37,2013-07-08 11:18:00,
2013-07-08 14:19:00,94.6,49.9,29.74,West,270,5.8,5.8,22,0.00,CLR,,0.00,WeatherDisplay:10.37,2013-07-08 11:19:00,
2013-07-08 14:21:00,94.3,49.6,29.74,NW,315,13.8,13.8,22,0.00,CLR,,0.00,WeatherDisplay:10.37,2013-07-08 11:21:00,
2013-07-08 14:22:00,94.3,49.6,29.74,NW,315,15.0,15.0,22,0.00,CLR,,0.00,WeatherDisplay:10.37,2013-07-08 11:22:00,
2013-07-08 14:23:00,94.3,49.6,29.74,NE,45,15.0,15.0,22,0.00,CLR,,0.00,WeatherDisplay:10.37,2013-07-08 11:23:00,
2013-07-08 14:24:00,94.3,49.6,29.74,North,0,11.8,11.8,22,0.00,CLR,,0.00,WeatherDisplay:10.37,2013-07-08 11:24:00,
2013-07-08 14:25:00,94.2,49.6,29.74,NNW,346,7.0,15.0,22,0.00,CLR,,0.00,WeatherDisplay:10.37,2013-07-08 11:25:00,
2013-07-08 14:26:00,94.3,49.6,29.74,NNE,22,10.4,10.4,22,0.00,CLR,,0.00,WeatherDisplay:10.37,2013-07-08 11:26:00,
2013-07-08 14:27:00,94.3,49.6,29.74,NNE,22,8.1,8.1,22,0.00,CLR,,0.00,WeatherDisplay:10.37,2013-07-08 11:27:00,
2013-07-08 14:28:00,94.6,49.9,29.74,NW,315,8.1,8.1,22,0.00,CLR,,0.00,WeatherDisplay:10.37,2013-07-08 11:28:00,
2013-07-08 14:29:00,94.6,49.9,29.74,WNW,292,8.1,8.1,22,0.00,CLR,,0.00,WeatherDisplay:10.37,2013-07-08 11:29:00,
2013-07-08 14:30:00,94.6,49.9,29.74,North,0,11.5,11.5,22,0.00,CLR,,0.00,WeatherDisplay:10.37,2013-07-08 11:30:00,
2013-07-08 14:31:00,94.5,49.7,29.74,North,0,11.5,11.5,22,0.00,CLR,,0.00,WeatherDisplay:10.37,2013-07-08 11:31:00,
2013-07-08 14:32:00,94.6,49.9,29.74,NNW,338,10.4,10.4,22,0.00,CLR,,0.00,WeatherDisplay:10.37,2013-07-08 11:32:00,
2013-07-08 14:34:00,94.5,49.7,29.74,NNW,338,11.5,11.5,22,0.00,CLR,,0.00,WeatherDisplay:10.37,2013-07-08 11:34:00,
2013-07-08 14:35:00,94.8,50.0,29.74,North,0,4.6,4.6,22,0.00,CLR,,0.00,WeatherDisplay:10.37,2013-07-08 11:35:00,
2013-07-08 14:36:00,95.4,50.5,29.74,North,0,10.0,10.0,22,0.00,CLR,,0.00,WeatherDisplay:10.37,2013-07-08 11:36:00,
2013-07-08 14:37:00,95.2,50.3,29.74,NNW,338,10.4,10.4,22,0.00,CLR,,0.00,WeatherDisplay:10.37,2013-07-08 11:37:00,
2013-07-08 14:39:00,95.0,50.2,29.71,NNE,22,11.5,11.5,22,0.00,CLR,,0.00,WeatherDisplay:10.37,2013-07-08 11:39:00,
2013-07-08 14:40:00,94.8,50.0,29.71,NE,45,10.0,10.0,22,0.00,CLR,,0.00,WeatherDisplay:10.37,2013-07-08 11:40:00,
2013-07-08 14:41:00,94.8,50.0,29.71,NNW,338,10.4,10.4,22,0.00,CLR,,0.00,WeatherDisplay:10.37,2013-07-08 11:41:00,
2013-07-08 14:43:00,94.6,49.9,29.71,NNE,22,10.4,10.4,22,0.00,CLR,,0.00,WeatherDisplay:10.37,2013-07-08 11:43:00,
2013-07-08 14:44:00,94.6,49.9,29.71,NE,45,10.4,10.4,22,0.00,CLR,,0.00,WeatherDisplay:10.37,2013-07-08 11:44:00,
2013-07-08 14:45:00,94.6,49.9,29.71,NNE,22,12.8,12.8,22,0.00,CLR,,0.00,WeatherDisplay:10.37,2013-07-08 11:45:00,
2013-07-08 14:46:00,94.5,49.7,29.71,NE,45,12.7,12.7,22,0.00,CLR,,0.00,WeatherDisplay:10.37,2013-07-08 11:46:00,
2013-07-08 14:48:00,95.0,50.2,29.71,NNE,22,8.1,8.1,22,0.00,CLR,,0.00,WeatherDisplay:10.37,2013-07-08 11:48:00,
2013-07-08 14:49:00,94.8,50.0,29.71,NNW,338,10.7,10.7,22,0.00,CLR,,0.00,WeatherDisplay:10.37,2013-07-08 11:49:00,
2013-07-08 14:50:00,94.8,50.0,29.71,NNE,22,10.4,10.4,22,0.00,CLR,,0.00,WeatherDisplay:10.37,2013-07-08 11:50:00,
2013-07-08 14:51:00,94.8,50.0,29.71,NE,45,10.4,10.4,22,0.00,CLR,,0.00,WeatherDisplay:10.37,2013-07-08 11:51:00,
2013-07-08 14:53:00,95.0,50.2,29.71,NNE,22,9.2,9.2,22,0.00,CLR,,0.00,WeatherDisplay:10.37,2013-07-08 11:53:00,
2013-07-08 14:54:00,95.0,50.2,29.71,NE,45,6.9,6.9,22,0.00,CLR,,0.00,WeatherDisplay:10.37,2013-07-08 11:54:00,
2013-07-08 14:55:00,95.5,50.6,29.71,NNE,22,8.1,8.1,22,0.00,CLR,,0.00,WeatherDisplay:10.37,2013-07-08 11:55:00,
2013-07-08 14:56:00,95.4,50.5,29.71,NNE,22,8.1,8.1,22,0.00,CLR,,0.00,WeatherDisplay:10.37,2013-07-08 11:56:00,
2013-07-08 14:59:00,95.4,50.5,29.71,NNW,338,11.5,11.5,22,0.00,CLR,,0.00,WeatherDisplay:10.37,2013-07-08 11:59:00,
2013-07-08 15:00:00,95.4,50.5,29.71,NW,315,10.4,10.4,22,0.00,CLR,,0.00,WeatherDisplay:10.37,2013-07-08 12:00:00,
2013-07-08 15:01:00,95.7,50.8,29.71,NNW,338,7.1,7.1,22,0.00,CLR,,0.00,WeatherDisplay:10.37,2013-07-08 12:01:00,
2013-07-08 15:02:00,95.7,50.8,29.71,NW,315,8.5,8.5,22,0.00,CLR,,0.00,WeatherDisplay:10.37,2013-07-08 12:02:00,
2013-07-08 15:04:00,95.5,50.6,29.71,NE,45,9.8,9.8,22,0.00,CLR,,0.00,WeatherDisplay:10.37,2013-07-08 12:04:00,
2013-07-08 15:06:00,95.2,50.3,29.71,NNW,338,9.2,9.2,22,0.00,CLR,,0.00,WeatherDisplay:10.37,2013-07-08 12:06:00,
2013-07-08 15:07:00,95.2,50.3,29.71,ENE,68,11.5,11.5,22,0.00,CLR,,0.00,WeatherDisplay:10.37,2013-07-08 12:07:00,
2013-07-08 15:09:00,95.4,50.5,29.71,NNW,338,12.7,12.7,22,0.00,CLR,,0.00,WeatherDisplay:10.37,2013-07-08 12:09:00,
2013-07-08 15:11:00,95.2,50.3,29.71,North,0,10.4,10.4,22,0.00,CLR,,0.00,WeatherDisplay:10.37,2013-07-08 12:11:00,
2013-07-08 15:12:00,95.2,50.3,29.71,NNE,22,11.5,11.5,22,0.00,CLR,,0.00,WeatherDisplay:10.37,2013-07-08 12:12:00,
2013-07-08 15:14:00,95.0,50.2,29.71,NNW,338,9.2,9.4,22,0.00,CLR,,0.00,WeatherDisplay:10.37,2013-07-08 12:14:00,
2013-07-08 15:16:00,95.2,50.3,29.71,ENE,68,10.4,10.4,22,0.00,CLR,,0.00,WeatherDisplay:10.37,2013-07-08 12:16:00,
2013-07-08 15:17:00,95.2,50.3,29.71,ENE,68,10.4,10.4,22,0.00,CLR,,0.00,WeatherDisplay:10.37,2013-07-08 12:17:00,
2013-07-08 15:20:00,95.4,50.5,29.71,NW,315,10.7,10.7,22,0.00,CLR,,0.00,WeatherDisplay:10.37,2013-07-08 12:20:00,
2013-07-08 15:22:00,95.4,50.5,29.71,NNW,338,10.4,10.4,22,0.00,CLR,,0.00,WeatherDisplay:10.37,2013-07-08 12:22:00,
2013-07-08 15:26:00,95.4,50.5,29.71,North,0,6.9,6.9,22,0.00,CLR,,0.00,WeatherDisplay:10.37,2013-07-08 12:26:00,
2013-07-08 15:27:00,95.4,50.5,29.71,North,0,6.9,6.9,22,0.00,CLR,,0.00,WeatherDisplay:10.37,2013-07-08 12:27:00,
2013-07-08 15:31:00,95.7,50.8,29.71,WNW,292,8.1,8.1,22,0.00,CLR,,0.00,WeatherDisplay:10.37,2013-07-08 12:31:00,
2013-07-08 15:32:00,95.7,50.8,29.71,North,0,9.0,9.0,22,0.00,CLR,,0.00,WeatherDisplay:10.37,2013-07-08 12:32:00,
2013-07-08 15:37:00,97.2,52.0,29.71,NNE,22,5.8,5.8,22,0.00,CLR,,0.00,WeatherDisplay:10.37,2013-07-08 12:37:00,
2013-07-08 15:38:00,97.3,52.1,29.71,North,0,5.8,5.8,22,0.00,CLR,,0.00,WeatherDisplay:10.37,2013-07-08 12:38:00,
2013-07-08 15:42:00,97.3,52.1,29.71,North,0,5.8,5.8,22,0.00,CLR,,0.00,WeatherDisplay:10.37,2013-07-08 12:42:00,
2013-07-08 15:43:00,97.3,52.1,29.71,WNW,292,5.8,5.8,22,0.00,CLR,,0.00,WeatherDisplay:10.37,2013-07-08 12:43:00,
2013-07-08 15:47:00,97.7,52.4,29.71,WSW,248,8.1,8.1,22,0.00,CLR,,0.00,WeatherDisplay:10.37,2013-07-08 12:47:00,
2013-07-08 15:48:00,97.0,51.8,29.71,WNW,292,11.8,11.8,22,0.00,CLR,,0.00,WeatherDisplay:10.37,2013-07-08 12:48:00,
2013-07-08 15:52:00,96.6,51.5,29.71,NNE,22,8.1,8.1,22,0.00,CLR,,0.00,WeatherDisplay:10.37,2013-07-08 12:52:00,
2013-07-08 15:53:00,96.6,51.5,29.71,NNW,338,6.9,6.9,22,0.00,CLR,,0.00,WeatherDisplay:10.37,2013-07-08 12:53:00,
2013-07-08 15:57:00,96.8,51.7,29.71,North,0,10.4,10.4,22,0.00,CLR,,0.00,WeatherDisplay:10.37,2013-07-08 12:57:00,
2013-07-08 15:58:00,96.6,51.5,29.71,NW,315,9.2,9.2,22,0.00,CLR,,0.00,WeatherDisplay:10.37,2013-07-08 12:58:00,
2013-07-08 15:59:00,96.6,51.5,29.71,NNW,338,9.2,9.2,22,0.00,CLR,,0.00,WeatherDisplay:10.37,2013-07-08 12:59:00,
2013-07-08 16:02:00,95.7,50.8,29.71,NNE,22,13.8,13.8,22,0.00,CLR,,0.00,WeatherDisplay:10.37,2013-07-08 13:02:00,
2013-07-08 16:03:00,95.5,50.6,29.71,NNE,22,10.4,10.4,22,0.00,CLR,,0.00,WeatherDisplay:10.37,2013-07-08 13:03:00,
2013-07-08 16:04:00,96.1,51.1,29.71,NNW,338,6.9,6.9,22,0.00,CLR,,0.00,WeatherDisplay:10.37,2013-07-08 13:04:00,
2013-07-08 16:07:00,96.4,51.4,29.71,NNE,22,6.9,6.9,22,0.00,CLR,,0.00,WeatherDisplay:10.37,2013-07-08 13:07:00,
2013-07-08 16:08:00,96.8,51.7,29.68,NNE,22,4.3,4.3,22,0.00,CLR,,0.00,WeatherDisplay:10.37,2013-07-08 13:08:00,
2013-07-08 16:09:00,96.8,51.7,29.68,ESE,112,4.6,4.6,22,0.00,CLR,,0.00,WeatherDisplay:10.37,2013-07-08 13:09:00,
2013-07-08 16:12:00,96.4,51.4,29.68,NNE,22,10.4,10.4,22,0.00,CLR,,0.00,WeatherDisplay:10.37,2013-07-08 13:12:00,
2013-07-08 16:13:00,96.4,51.4,29.68,NNE,22,9.2,9.2,22,0.00,CLR,,0.00,WeatherDisplay:10.37,2013-07-08 13:13:00,
2013-07-08 16:14:00,96.6,51.5,29.68,NNE,22,9.2,9.2,22,0.00,CLR,,0.00,WeatherDisplay:10.37,2013-07-08 13:14:00,
2013-07-08 16:17:00,96.8,51.7,29.68,North,0,9.7,9.7,22,0.00,CLR,,0.00,WeatherDisplay:10.37,2013-07-08 13:17:00,
2013-07-08 16:18:00,96.8,51.7,29.68,NNW,338,9.2,9.2,22,0.00,CLR,,0.00,WeatherDisplay:10.37,2013-07-08 13:18:00,
2013-07-08 16:19:00,96.8,51.7,29.68,NNE,22,8.1,8.1,22,0.00,CLR,,0.00,WeatherDisplay:10.37,2013-07-08 13:19:00,
2013-07-08 16:23:00,97.2,52.0,29.68,North,0,5.9,5.9,22,0.00,CLR,,0.00,WeatherDisplay:10.37,2013-07-08 13:23:00,
2013-07-08 16:24:00,97.0,51.8,29.68,North,0,6.9,6.9,22,0.00,CLR,,0.00,WeatherDisplay:10.37,2013-07-08 13:24:00,
2013-07-08 16:28:00,96.4,51.4,29.68,North,0,6.9,6.9,22,0.00,CLR,,0.00,WeatherDisplay:10.37,2013-07-08 13:28:00,
2013-07-08 16:29:00,97.2,52.0,29.68,ENE,68,6.9,6.9,22,0.00,CLR,,0.00,WeatherDisplay:10.37,2013-07-08 13:29:00,
2013-07-08 16:30:00,97.5,52.3,29.68,NW,315,3.8,3.8,22,0.00,CLR,,0.00,WeatherDisplay:10.37,2013-07-08 13:30:00,
2013-07-08 16:33:00,97.2,52.0,29.68,SSE,158,6.9,6.9,22,0.00,CLR,,0.00,WeatherDisplay:10.37,2013-07-08 13:33:00,
2013-07-08 16:34:00,97.3,52.1,29.68,ENE,68,4.6,4.6,22,0.00,CLR,,0.00,WeatherDisplay:10.37,2013-07-08 13:34:00,
2013-07-08 16:35:00,97.7,52.4,29.68,North,0,3.6,3.6,22,0.00,CLR,,0.00,WeatherDisplay:10.37,2013-07-08 13:35:00,
2013-07-08 16:36:00,97.3,52.1,29.68,North,0,6.9,6.9,22,0.00,CLR,,0.00,WeatherDisplay:10.37,2013-07-08 13:36:00,
2013-07-08 16:38:00,96.6,51.5,29.68,NNW,338,9.2,9.2,22,0.00,CLR,,0.00,WeatherDisplay:10.37,2013-07-08 13:38:00,
2013-07-08 16:39:00,96.6,51.5,29.68,NNW,338,10.4,10.4,22,0.00,CLR,,0.00,WeatherDisplay:10.37,2013-07-08 13:39:00,
2013-07-08 16:40:00,96.6,51.5,29.68,NNW,338,8.1,8.1,22,0.00,CLR,,0.00,WeatherDisplay:10.37,2013-07-08 13:40:00,
2013-07-08 16:41:00,97.0,51.8,29.68,NNW,338,4.0,4.0,22,0.00,CLR,,0.00,WeatherDisplay:10.37,2013-07-08 13:41:00,
2013-07-08 16:43:00,97.0,51.8,29.68,NNW,338,8.1,8.1,22,0.00,CLR,,0.00,WeatherDisplay:10.37,2013-07-08 13:43:00,
2013-07-08 16:44:00,96.8,51.7,29.68,NNE,22,11.5,11.5,22,0.00,CLR,,0.00,WeatherDisplay:10.37,2013-07-08 13:44:00,
2013-07-08 16:45:00,96.8,51.7,29.68,NNW,338,9.2,9.2,22,0.00,CLR,,0.00,WeatherDisplay:10.37,2013-07-08 13:45:00,
2013-07-08 16:46:00,96.8,51.7,29.68,NE,45,8.1,8.1,22,0.00,CLR,,0.00,WeatherDisplay:10.37,2013-07-08 13:46:00,
2013-07-08 16:48:00,96.4,51.4,29.68,NNE,22,11.5,11.5,22,0.00,CLR,,0.00,WeatherDisplay:10.37,2013-07-08 13:48:00,
2013-07-08 16:49:00,95.7,50.8,29.68,NNW,338,10.4,10.4,22,0.00,CLR,,0.00,WeatherDisplay:10.37,2013-07-08 13:49:00,
2013-07-08 16:50:00,95.7,50.8,29.68,NNE,22,11.5,11.5,22,0.00,CLR,,0.00,WeatherDisplay:10.37,2013-07-08 13:50:00,
2013-07-08 16:51:00,95.9,50.9,29.68,North,0,8.5,8.5,22,0.00,CLR,,0.00,WeatherDisplay:10.37,2013-07-08 13:51:00,
2013-07-08 16:53:00,96.3,51.2,29.68,NW,315,5.8,5.8,22,0.00,CLR,,0.00,WeatherDisplay:10.37,2013-07-08 13:53:00,
2013-07-08 16:55:00,96.4,51.4,29.68,NNE,22,9.7,9.7,22,0.00,CLR,,0.00,WeatherDisplay:10.37,2013-07-08 13:55:00,
2013-07-08 16:56:00,96.3,51.2,29.68,NNW,338,9.2,9.2,22,0.00,CLR,,0.00,WeatherDisplay:10.37,2013-07-08 13:56:00,
2013-07-08 16:59:00,96.4,51.4,29.68,NW,315,5.8,5.8,22,0.00,CLR,,0.00,WeatherDisplay:10.37,2013-07-08 13:59:00,
2013-07-08 17:00:00,96.6,51.5,29.68,NNW,338,7.4,7.4,22,0.00,CLR,,0.00,WeatherDisplay:10.37,2013-07-08 14:00:00,
2013-07-08 17:02:00,96.6,51.5,29.68,NNE,22,8.1,8.1,22,0.00,CLR,,0.00,WeatherDisplay:10.37,2013-07-08 14:02:00,
2013-07-08 17:04:00,95.7,50.8,29.68,NNW,338,16.1,16.1,22,0.00,CLR,,0.00,WeatherDisplay:10.37,2013-07-08 14:04:00,
2013-07-08 17:05:00,95.9,50.9,29.68,NNW,338,8.1,8.1,22,0.00,CLR,,0.00,WeatherDisplay:10.37,2013-07-08 14:05:00,
2013-07-08 17:06:00,95.7,50.8,29.68,NNE,22,9.2,9.2,22,0.00,CLR,,0.00,WeatherDisplay:10.37,2013-07-08 14:06:00,
2013-07-08 17:07:00,96.1,51.1,29.68,NW,315,9.2,9.2,22,0.00,CLR,,0.00,WeatherDisplay:10.37,2013-07-08 14:07:00,
2013-07-08 17:09:00,95.7,50.8,29.68,NNW,338,12.7,12.7,22,0.00,CLR,,0.00,WeatherDisplay:10.37,2013-07-08 14:09:00,
2013-07-08 17:10:00,95.5,50.6,29.68,NNE,22,13.7,13.7,22,0.00,CLR,,0.00,WeatherDisplay:10.37,2013-07-08 14:10:00,
2013-07-08 17:11:00,94.8,50.0,29.68,NNE,22,13.8,13.8,22,0.00,CLR,,0.00,WeatherDisplay:10.37,2013-07-08 14:11:00,
2013-07-08 17:12:00,94.8,50.0,29.68,North,0,12.7,12.7,22,0.00,CLR,,0.00,WeatherDisplay:10.37,2013-07-08 14:12:00,
2013-07-08 17:14:00,94.6,49.9,29.68,NNE,22,9.2,9.2,22,0.00,CLR,,0.00,WeatherDisplay:10.37,2013-07-08 14:14:00,
2013-07-08 17:15:00,94.6,49.9,29.68,NNE,22,8.1,8.1,22,0.00,CLR,,0.00,WeatherDisplay:10.37,2013-07-08 14:15:00,
2013-07-08 17:16:00,95.0,50.2,29.68,NNE,22,8.1,8.1,22,0.00,CLR,,0.00,WeatherDisplay:10.37,2013-07-08 14:16:00,
2013-07-08 17:17:00,95.2,50.3,29.68,NNW,338,5.8,5.8,22,0.00,CLR,,0.00,WeatherDisplay:10.37,2013-07-08 14:17:00,
2013-07-08 17:19:00,95.4,50.5,29.68,NNE,22,8.1,8.1,22,0.00,CLR,,0.00,WeatherDisplay:10.37,2013-07-08 14:19:00,
2013-07-08 17:21:00,95.5,50.6,29.68,NNW,338,5.8,6.7,22,0.00,CLR,,0.00,WeatherDisplay:10.37,2013-07-08 14:21:00,
2013-07-08 17:22:00,95.5,50.6,29.68,NNW,338,6.9,6.9,22,0.00,CLR,,0.00,WeatherDisplay:10.37,2013-07-08 14:22:00,
2013-07-08 17:24:00,95.7,50.8,29.68,NNW,338,8.1,8.1,22,0.00,CLR,,0.00,WeatherDisplay:10.37,2013-07-08 14:24:00,
2013-07-08 17:26:00,95.7,50.8,29.68,NNW,338,10.4,10.4,22,0.00,CLR,,0.00,WeatherDisplay:10.37,2013-07-08 14:26:00,
2013-07-08 17:27:00,95.7,50.8,29.68,North,0,8.1,8.1,22,0.00,CLR,,0.00,WeatherDisplay:10.37,2013-07-08 14:27:00,
2013-07-08 17:29:00,95.2,50.3,29.68,NNE,22,15.0,15.0,22,0.00,CLR,,0.00,WeatherDisplay:10.37,2013-07-08 14:29:00,
2013-07-08 17:31:00,95.4,50.5,29.68,North,0,9.8,9.8,22,0.00,CLR,,0.00,WeatherDisplay:10.37,2013-07-08 14:31:00,
2013-07-08 17:32:00,94.8,50.0,29.68,NNE,22,10.4,10.4,22,0.00,CLR,,0.00,WeatherDisplay:10.37,2013-07-08 14:32:00,
2013-07-08 17:33:00,94.8,50.0,29.68,NNW,338,10.4,10.4,22,0.00,CLR,,0.00,WeatherDisplay:10.37,2013-07-08 14:33:00,
2013-07-08 17:34:00,94.8,50.0,29.68,NNW,338,12.3,12.3,22,0.00,CLR,,0.00,WeatherDisplay:10.37,2013-07-08 14:34:00,
2013-07-08 17:36:00,94.3,49.6,29.68,North,0,12.8,12.8,22,0.00,CLR,,0.00,WeatherDisplay:10.37,2013-07-08 14:36:00,
2013-07-08 17:37:00,94.3,49.6,29.68,North,0,13.8,13.8,22,0.00,CLR,,0.00,WeatherDisplay:10.37,2013-07-08 14:37:00,
2013-07-08 17:38:00,94.5,49.7,29.68,North,0,10.4,10.4,22,0.00,CLR,,0.00,WeatherDisplay:10.37,2013-07-08 14:38:00,
2013-07-08 17:40:00,94.5,49.7,29.68,NNW,338,9.2,9.2,22,0.00,CLR,,0.00,WeatherDisplay:10.37,2013-07-08 14:40:00,
2013-07-08 17:41:00,94.1,49.4,29.68,North,0,13.0,13.0,22,0.00,CLR,,0.00,WeatherDisplay:10.37,2013-07-08 14:41:00,
2013-07-08 17:42:00,93.7,49.1,29.68,NNE,22,15.0,15.0,22,0.00,CLR,,0.00,WeatherDisplay:10.37,2013-07-08 14:42:00,
2013-07-08 17:43:00,93.7,49.1,29.68,North,0,10.4,11.8,22,0.00,CLR,,0.00,WeatherDisplay:10.37,2013-07-08 14:43:00,
2013-07-08 17:45:00,94.3,49.6,29.68,NW,315,6.9,6.9,22,0.00,CLR,,0.00,WeatherDisplay:10.37,2013-07-08 14:45:00,
2013-07-08 17:47:00,94.3,49.6,29.68,NNE,22,10.4,10.4,22,0.00,CLR,,0.00,WeatherDisplay:10.37,2013-07-08 14:47:00,
2013-07-08 17:48:00,94.3,49.6,29.68,NNE,22,8.1,8.1,22,0.00,CLR,,0.00,WeatherDisplay:10.37,2013-07-08 14:48:00,
2013-07-08 17:51:00,94.3,49.6,29.68,NW,315,11.5,11.5,22,0.00,CLR,,0.00,WeatherDisplay:10.37,2013-07-08 14:51:00,
2013-07-08 17:52:00,94.3,49.6,29.68,NW,315,11.5,11.5,22,0.00,CLR,,0.00,WeatherDisplay:10.37,2013-07-08 14:52:00,
2013-07-08 17:53:00,94.3,49.6,29.68,NNE,22,6.9,6.9,22,0.00,CLR,,0.00,WeatherDisplay:10.37,2013-07-08 14:53:00,
2013-07-08 17:56:00,94.3,49.6,29.68,NNW,338,10.4,10.4,22,0.00,CLR,,0.00,WeatherDisplay:10.37,2013-07-08 14:56:00,
2013-07-08 17:57:00,94.1,49.4,29.68,NNW,338,9.2,9.2,22,0.00,CLR,,0.00,WeatherDisplay:10.37,2013-07-08 14:57:00,
2013-07-08 17:58:00,94.1,49.4,29.68,NNW,338,10.0,10.0,22,0.00,CLR,,0.00,WeatherDisplay:10.37,2013-07-08 14:58:00,
2013-07-08 18:01:00,94.6,49.9,29.68,NNE,22,4.3,4.3,22,0.00,CLR,,0.00,WeatherDisplay:10.37,2013-07-08 15:01:00,
2013-07-08 18:02:00,94.6,49.9,29.68,NE,45,4.6,4.6,22,0.00,CLR,,0.00,WeatherDisplay:10.37,2013-07-08 15:02:00,
2013-07-08 18:03:00,94.6,49.9,29.68,NE,45,6.9,6.9,22,0.00,CLR,,0.00,WeatherDisplay:10.37,2013-07-08 15:03:00,
2013-07-08 18:04:00,94.1,49.4,29.68,NNW,338,10.2,10.2,22,0.00,CLR,,0.00,WeatherDisplay:10.37,2013-07-08 15:04:00,
2013-07-08 18:06:00,93.6,49.0,29.68,NNE,22,10.5,10.5,22,0.00,CLR,,0.00,WeatherDisplay:10.37,2013-07-08 15:06:00,
2013-07-08 18:07:00,93.6,49.0,29.68,NNE,22,11.5,11.5,22,0.00,CLR,,0.00,WeatherDisplay:10.37,2013-07-08 15:07:00,
2013-07-08 18:08:00,93.7,49.1,29.68,NNW,338,10.4,10.4,22,0.00,CLR,,0.00,WeatherDisplay:10.37,2013-07-08 15:08:00,
2013-07-08 18:09:00,93.7,49.1,29.65,NNW,338,10.4,10.4,22,0.00,CLR,,0.00,WeatherDisplay:10.37,2013-07-08 15:09:00,
2013-07-08 18:12:00,94.1,49.4,29.65,North,0,9.2,9.2,22,0.00,CLR,,0.00,WeatherDisplay:10.37,2013-07-08 15:12:00,
2013-07-08 18:13:00,93.7,49.1,29.65,NE,45,12.7,12.7,22,0.00,CLR,,0.00,WeatherDisplay:10.37,2013-07-08 15:13:00,
2013-07-08 18:14:00,93.6,49.0,29.65,NNW,338,8.1,8.1,22,0.00,CLR,,0.00,WeatherDisplay:10.37,2013-07-08 15:14:00,
2013-07-08 18:17:00,93.7,49.1,29.65,North,0,6.9,6.9,22,0.00,CLR,,0.00,WeatherDisplay:10.37,2013-07-08 15:17:00,
2013-07-08 18:19:00,93.6,49.0,29.65,North,0,8.1,8.1,22,0.00,CLR,,0.00,WeatherDisplay:10.37,2013-07-08 15:19:00,
2013-07-08 18:22:00,93.4,48.9,29.65,NNE,22,6.9,6.9,22,0.00,CLR,,0.00,WeatherDisplay:10.37,2013-07-08 15:22:00,
2013-07-08 18:24:00,93.0,49.7,29.68,NNE,22,10.4,10.4,23,0.00,CLR,,0.00,WeatherDisplay:10.37,2013-07-08 15:24:00,
2013-07-08 18:25:00,93.2,48.7,29.68,NNE,22,8.1,8.1,22,0.00,CLR,,0.00,WeatherDisplay:10.37,2013-07-08 15:25:00,
2013-07-08 18:27:00,93.4,48.9,29.68,NNW,338,6.0,6.0,22,0.00,CLR,,0.00,WeatherDisplay:10.37,2013-07-08 15:27:00,
2013-07-08 18:29:00,93.0,49.7,29.68,North,0,9.2,9.2,23,0.00,CLR,,0.00,WeatherDisplay:10.37,2013-07-08 15:29:00,
2013-07-08 18:30:00,93.2,48.7,29.68,ENE,68,9.2,9.2,22,0.00,CLR,,0.00,WeatherDisplay:10.37,2013-07-08 15:30:00,
2013-07-08 18:32:00,93.4,48.9,29.68,NE,45,12.7,12.7,22,0.00,CLR,,0.00,WeatherDisplay:10.37,2013-07-08 15:32:00,
2013-07-08 18:35:00,93.2,48.7,29.68,North,0,10.4,10.4,22,0.00,CLR,,0.00,WeatherDisplay:10.37,2013-07-08 15:35:00,
2013-07-08 18:37:00,93.2,48.7,29.68,ENE,68,3.5,3.5,22,0.00,CLR,,0.00,WeatherDisplay:10.37,2013-07-08 15:37:00,
2013-07-08 18:38:00,93.2,48.7,29.65,ENE,68,4.6,4.6,22,0.00,CLR,,0.00,WeatherDisplay:10.37,2013-07-08 15:38:00,
2013-07-08 18:40:00,93.2,48.7,29.65,North,0,5.8,5.8,22,0.00,CLR,,0.00,WeatherDisplay:10.37,2013-07-08 15:40:00,
2013-07-08 18:43:00,92.5,49.3,29.65,North,0,10.4,10.4,23,0.00,CLR,,0.00,WeatherDisplay:10.37,2013-07-08 15:43:00,
2013-07-08 18:44:00,92.3,49.1,29.65,NE,45,10.4,10.4,23,0.00,CLR,,0.00,WeatherDisplay:10.37,2013-07-08 15:44:00,
2013-07-08 18:45:00,92.5,49.3,29.65,NNW,338,8.1,8.1,23,0.00,CLR,,0.00,WeatherDisplay:10.37,2013-07-08 15:45:00,
2013-07-08 18:48:00,92.7,49.4,29.65,NNE,22,5.8,5.8,23,0.00,CLR,,0.00,WeatherDisplay:10.37,2013-07-08 15:48:00,
2013-07-08 18:49:00,92.5,49.3,29.65,NNE,22,8.1,8.1,23,0.00,CLR,,0.00,WeatherDisplay:10.37,2013-07-08 15:49:00,
2013-07-08 18:50:00,92.1,49.0,29.65,ENE,68,13.8,13.8,23,0.00,CLR,,0.00,WeatherDisplay:10.37,2013-07-08 15:50:00,
2013-07-08 18:51:00,92.1,49.0,29.65,NNE,22,9.2,9.2,23,0.00,CLR,,0.00,WeatherDisplay:10.37,2013-07-08 15:51:00,
2013-07-08 18:53:00,92.1,49.0,29.65,NE,45,6.9,6.9,23,0.00,CLR,,0.00,WeatherDisplay:10.37,2013-07-08 15:53:00,
2013-07-08 18:55:00,91.9,48.8,29.65,NNW,338,9.2,9.2,23,0.00,CLR,,0.00,WeatherDisplay:10.37,2013-07-08 15:55:00,
2013-07-08 18:56:00,91.9,48.8,29.65,NNE,22,6.4,6.4,23,0.00,CLR,,0.00,WeatherDisplay:10.37,2013-07-08 15:56:00,
2013-07-08 18:58:00,91.4,48.4,29.65,NNE,22,13.8,13.8,23,0.00,CLR,,0.00,WeatherDisplay:10.37,2013-07-08 15:58:00,
2013-07-08 19:00:00,91.6,48.5,29.65,NNE,22,10.4,10.4,23,0.00,CLR,,0.00,WeatherDisplay:10.37,2013-07-08 16:00:00,
2013-07-08 19:01:00,91.2,48.2,29.65,NE,45,12.7,12.7,23,0.00,CLR,,0.00,WeatherDisplay:10.37,2013-07-08 16:01:00,
2013-07-08 19:03:00,91.2,48.2,29.65,NNE,22,8.5,8.5,23,0.00,CLR,,0.00,WeatherDisplay:10.37,2013-07-08 16:03:00,
2013-07-08 19:05:00,91.4,48.4,29.65,NNE,22,12.1,12.1,23,0.00,CLR,,0.00,WeatherDisplay:10.37,2013-07-08 16:05:00,
2013-07-08 19:06:00,91.2,48.2,29.65,North,0,11.5,11.5,23,0.00,CLR,,0.00,WeatherDisplay:10.37,2013-07-08 16:06:00,
2013-07-08 19:09:00,91.0,48.1,29.68,North,0,6.9,6.9,23,0.00,CLR,,0.00,WeatherDisplay:10.37,2013-07-08 16:09:00,
2013-07-08 19:10:00,90.9,47.9,29.68,NNW,338,10.4,10.4,23,0.00,CLR,,0.00,WeatherDisplay:10.37,2013-07-08 16:10:00,
2013-07-08 19:11:00,90.9,47.9,29.68,East,90,10.4,10.4,23,0.00,CLR,,0.00,WeatherDisplay:10.37,2013-07-08 16:11:00,
2013-07-08 19:14:00,90.9,47.9,29.68,North,0,9.2,9.2,23,0.00,CLR,,0.00,WeatherDisplay:10.37,2013-07-08 16:14:00,
2013-07-08 19:15:00,90.7,47.8,29.68,NE,45,10.9,10.9,23,0.00,CLR,,0.00,WeatherDisplay:10.37,2013-07-08 16:15:00,
2013-07-08 19:16:00,90.3,47.5,29.68,NE,45,11.5,11.5,23,0.00,CLR,,0.00,WeatherDisplay:10.37,2013-07-08 16:16:00,
2013-07-08 19:17:00,90.3,47.5,29.68,NE,45,10.4,10.4,23,0.00,CLR,,0.00,WeatherDisplay:10.37,2013-07-08 16:17:00,
2013-07-08 19:19:00,90.3,47.5,29.68,NNE,22,7.8,7.8,23,0.00,CLR,,0.00,WeatherDisplay:10.37,2013-07-08 16:19:00,
2013-07-08 19:21:00,90.3,47.5,29.68,North,0,9.2,9.2,23,0.00,CLR,,0.00,WeatherDisplay:10.37,2013-07-08 16:21:00,
2013-07-08 19:22:00,90.3,47.5,29.68,NW,315,8.1,8.1,23,0.00,CLR,,0.00,WeatherDisplay:10.37,2013-07-08 16:22:00,
2013-07-08 19:24:00,90.7,47.8,29.68,ENE,68,5.8,5.8,23,0.00,CLR,,0.00,WeatherDisplay:10.37,2013-07-08 16:24:00,
2013-07-08 19:26:00,90.5,47.6,29.68,East,90,10.4,10.4,23,0.00,CLR,,0.00,WeatherDisplay:10.37,2013-07-08 16:26:00,
2013-07-08 19:27:00,90.1,47.3,29.68,NE,45,11.5,11.5,23,0.00,CLR,,0.00,WeatherDisplay:10.37,2013-07-08 16:27:00,
2013-07-08 19:30:00,90.3,47.5,29.68,ENE,68,5.8,5.8,23,0.00,CLR,,0.00,WeatherDisplay:10.37,2013-07-08 16:30:00,
2013-07-08 19:31:00,90.3,47.5,29.68,NNW,338,5.8,5.9,23,0.00,CLR,,0.00,WeatherDisplay:10.37,2013-07-08 16:31:00,
2013-07-08 19:32:00,90.1,47.3,29.68,NNW,338,10.4,10.4,23,0.00,CLR,,0.00,WeatherDisplay:10.37,2013-07-08 16:32:00,
2013-07-08 19:35:00,90.0,47.2,29.68,NNE,22,9.4,9.4,23,0.00,CLR,,0.00,WeatherDisplay:10.37,2013-07-08 16:35:00,
2013-07-08 19:37:00,89.8,47.0,29.68,NE,45,9.2,9.2,23,0.00,CLR,,0.00,WeatherDisplay:10.37,2013-07-08 16:37:00,
2013-07-08 19:40:00,89.6,46.9,29.68,NE,45,9.2,9.2,23,0.00,CLR,,0.00,WeatherDisplay:10.37,2013-07-08 16:40:00,
2013-07-08 19:42:00,89.4,47.9,29.68,NNW,338,10.4,10.4,24,0.00,CLR,,0.00,WeatherDisplay:10.37,2013-07-08 16:42:00,
2013-07-08 19:43:00,89.4,47.9,29.68,North,0,6.9,6.9,24,0.00,CLR,,0.00,WeatherDisplay:10.37,2013-07-08 16:43:00,
2013-07-08 19:48:00,89.1,47.6,29.68,NNW,338,9.2,9.2,24,0.00,CLR,,0.00,WeatherDisplay:10.37,2013-07-08 16:48:00,
2013-07-08 19:49:00,89.1,47.6,29.68,NNW,338,9.2,9.2,24,0.00,CLR,,0.00,WeatherDisplay:10.37,2013-07-08 16:49:00,
2013-07-08 19:55:00,88.7,47.3,29.68,NE,45,11.4,11.4,24,0.00,CLR,,0.00,WeatherDisplay:10.37,2013-07-08 16:55:00,
2013-07-08 19:56:00,88.5,47.1,29.68,NNW,338,11.5,11.5,24,0.00,CLR,,0.00,WeatherDisplay:10.37,2013-07-08 16:56:00,
2013-07-08 20:00:00,88.0,46.7,29.68,NNW,338,13.8,13.8,24,0.00,CLR,,0.00,WeatherDisplay:10.37,2013-07-08 17:00:00,
2013-07-08 20:01:00,88.0,46.7,29.68,North,0,10.4,10.4,24,0.00,CLR,,0.00,WeatherDisplay:10.37,2013-07-08 17:01:00,
2013-07-08 20:06:00,87.8,46.5,29.68,NNE,22,11.5,11.5,24,0.00,CLR,,0.00,WeatherDisplay:10.37,2013-07-08 17:06:00,
2013-07-08 20:07:00,87.8,46.5,29.68,NNW,338,12.7,12.7,24,0.00,CLR,,0.00,WeatherDisplay:10.37,2013-07-08 17:07:00,
2013-07-08 20:12:00,87.8,46.5,29.68,NNW,338,5.8,5.8,24,0.00,CLR,,0.00,WeatherDisplay:10.37,2013-07-08 17:12:00,
2013-07-08 20:14:00,87.8,46.5,29.68,North,0,5.6,5.6,24,0.00,CLR,,0.00,WeatherDisplay:10.37,2013-07-08 17:14:00,
2013-07-08 20:17:00,87.6,46.4,29.68,NNW,338,12.7,12.7,24,0.00,CLR,,0.00,WeatherDisplay:10.37,2013-07-08 17:17:00,
2013-07-08 20:20:00,87.6,46.4,29.68,NNW,338,5.8,5.8,24,0.00,CLR,,0.00,WeatherDisplay:10.37,2013-07-08 17:20:00,
2013-07-08 20:22:00,87.4,46.2,29.68,NW,315,6.9,6.9,24,0.00,CLR,,0.00,WeatherDisplay:10.37,2013-07-08 17:22:00,
2013-07-08 20:23:00,87.4,46.2,29.68,NNW,338,9.7,9.7,24,0.00,CLR,,0.00,WeatherDisplay:10.37,2013-07-08 17:23:00,
2013-07-08 20:27:00,86.9,45.8,29.71,NNW,338,12.7,12.7,24,0.00,CLR,,0.00,WeatherDisplay:10.37,2013-07-08 17:27:00,
2013-07-08 20:28:00,86.9,45.8,29.71,North,0,12.7,12.7,24,0.00,CLR,,0.00,WeatherDisplay:10.37,2013-07-08 17:28:00,
2013-07-08 20:33:00,86.4,45.3,29.71,NNE,22,8.1,8.1,24,0.00,CLR,,0.00,WeatherDisplay:10.37,2013-07-08 17:33:00,
2013-07-08 20:34:00,86.4,45.3,29.71,NNE,22,8.1,8.1,24,0.00,CLR,,0.00,WeatherDisplay:10.37,2013-07-08 17:34:00,
2013-07-08 20:40:00,86.0,45.0,29.71,North,354,8.0,13.0,24,0.00,CLR,,0.00,WeatherDisplay:10.37,2013-07-08 17:40:00,
2013-07-08 20:45:00,85.8,44.8,29.71,NNW,338,8.1,8.1,24,0.00,CLR,,0.00,WeatherDisplay:10.37,2013-07-08 17:45:00,
2013-07-08 20:50:00,85.5,47.7,29.71,NNW,338,10.4,10.4,27,0.00,CLR,,0.00,WeatherDisplay:10.37,2013-07-08 17:50:00,
2013-07-08 20:51:00,85.5,47.7,29.71,NNW,338,9.2,9.2,27,0.00,CLR,,0.00,WeatherDisplay:10.37,2013-07-08 17:51:00,
2013-07-08 20:53:00,85.3,47.5,29.71,NNE,22,8.1,8.1,27,0.00,CLR,,0.00,WeatherDisplay:10.37,2013-07-08 17:53:00,
2013-07-08 20:56:00,85.3,47.5,29.71,NNE,22,6.4,6.4,27,0.00,CLR,,0.00,WeatherDisplay:10.37,2013-07-08 17:56:00,
2013-07-08 20:57:00,85.3,47.5,29.71,NNE,22,8.1,8.1,27,0.00,CLR,,0.00,WeatherDisplay:10.37,2013-07-08 17:57:00,
2013-07-08 20:59:00,85.1,47.4,29.71,WNW,292,8.1,8.1,27,0.00,CLR,,0.00,WeatherDisplay:10.37,2013-07-08 17:59:00,
2013-07-08 21:02:00,85.1,47.4,29.71,NNW,338,5.8,5.8,27,0.00,CLR,,0.00,WeatherDisplay:10.37,2013-07-08 18:02:00,
2013-07-08 21:03:00,84.9,47.2,29.71,North,0,8.1,8.1,27,0.00,CLR,,0.00,WeatherDisplay:10.37,2013-07-08 18:03:00,
2013-07-08 21:04:00,84.9,47.2,29.71,North,0,8.1,8.1,27,0.00,CLR,,0.00,WeatherDisplay:10.37,2013-07-08 18:04:00,
2013-07-08 21:06:00,84.9,47.2,29.71,NNW,338,5.8,5.8,27,0.00,CLR,,0.00,WeatherDisplay:10.37,2013-07-08 18:06:00,
2013-07-08 21:07:00,84.9,47.2,29.71,NW,315,4.6,4.6,27,0.00,CLR,,0.00,WeatherDisplay:10.37,2013-07-08 18:07:00,
2013-07-08 21:09:00,84.7,47.1,29.71,WSW,248,4.6,4.6,27,0.00,CLR,,0.00,WeatherDisplay:10.37,2013-07-08 18:09:00,
2013-07-08 21:11:00,84.7,47.1,29.71,NNW,338,6.9,6.9,27,0.00,CLR,,0.00,WeatherDisplay:10.37,2013-07-08 18:11:00,
2013-07-08 21:14:00,84.6,46.9,29.71,NNW,338,8.1,8.1,27,0.00,CLR,,0.00,WeatherDisplay:10.37,2013-07-08 18:14:00,
2013-07-08 21:15:00,84.6,46.9,29.71,NW,315,5.8,5.8,27,0.00,CLR,,0.00,WeatherDisplay:10.37,2013-07-08 18:15:00,
2013-07-08 21:17:00,84.6,46.9,29.71,NNE,22,5.8,5.8,27,0.00,CLR,,0.00,WeatherDisplay:10.37,2013-07-08 18:17:00,
2013-07-08 21:20:00,84.4,46.7,29.71,NNW,338,4.6,4.6,27,0.00,CLR,,0.00,WeatherDisplay:10.37,2013-07-08 18:20:00,
2013-07-08 21:21:00,84.4,46.7,29.71,NNE,22,5.8,5.8,27,0.00,CLR,,0.00,WeatherDisplay:10.37,2013-07-08 18:21:00,
2013-07-08 21:24:00,84.4,46.7,29.71,North,0,8.1,8.1,27,0.00,CLR,,0.00,WeatherDisplay:10.37,2013-07-08 18:24:00,
2013-07-08 21:25:00,84.2,46.6,29.71,NNW,338,9.2,9.2,27,0.00,CLR,,0.00,WeatherDisplay:10.37,2013-07-08 18:25:00,
2013-07-08 21:29:00,84.2,46.6,29.71,NNW,338,5.8,5.8,27,0.00,CLR,,0.00,WeatherDisplay:10.37,2013-07-08 18:29:00,
2013-07-08 21:30:00,84.2,46.6,29.71,NNE,22,6.0,6.0,27,0.00,CLR,,0.00,WeatherDisplay:10.37,2013-07-08 18:30:00,
2013-07-08 21:35:00,84.2,46.6,29.71,NW,315,6.4,6.4,27,0.00,CLR,,0.00,WeatherDisplay:10.37,2013-07-08 18:35:00,
2013-07-08 21:38:00,84.2,46.6,29.71,NW,315,6.9,6.9,27,0.00,CLR,,0.00,WeatherDisplay:10.37,2013-07-08 18:38:00,
2013-07-08 21:40:00,84.0,46.4,29.74,NW,315,5.8,5.8,27,0.00,CLR,,0.00,WeatherDisplay:10.37,2013-07-08 18:40:00,
2013-07-08 21:43:00,84.0,46.4,29.74,NNW,338,5.8,5.8,27,0.00,CLR,,0.00,WeatherDisplay:10.37,2013-07-08 18:43:00,
2013-07-08 21:44:00,84.0,46.4,29.74,NNW,338,8.1,8.1,27,0.00,CLR,,0.00,WeatherDisplay:10.37,2013-07-08 18:44:00,
2013-07-08 21:45:00,84.0,46.4,29.74,NNW,338,8.1,8.1,27,0.00,CLR,,0.00,WeatherDisplay:10.37,2013-07-08 18:45:00,
2013-07-08 21:50:00,84.0,46.4,29.74,NNE,22,8.1,8.1,27,0.00,CLR,,0.00,WeatherDisplay:10.37,2013-07-08 18:50:00,
2013-07-08 21:52:00,84.0,46.4,29.74,NNW,338,7.1,7.1,27,0.00,CLR,,0.00,WeatherDisplay:10.37,2013-07-08 18:52:00,
2013-07-08 21:53:00,83.8,46.3,29.74,NNW,338,6.9,6.9,27,0.00,CLR,,0.00,WeatherDisplay:10.37,2013-07-08 18:53:00,
2013-07-08 21:55:00,83.8,46.3,29.74,NNW,338,5.8,5.8,27,0.00,CLR,,0.00,WeatherDisplay:10.37,2013-07-08 18:55:00,
2013-07-08 21:58:00,83.8,46.3,29.74,North,0,5.9,5.9,27,0.00,CLR,,0.00,WeatherDisplay:10.37,2013-07-08 18:58:00,
2013-07-08 21:59:00,83.8,46.3,29.74,NNW,338,5.8,5.9,27,0.00,CLR,,0.00,WeatherDisplay:10.37,2013-07-08 18:59:00,
2013-07-08 22:00:00,83.8,46.3,29.74,North,0,5.8,5.8,27,0.00,CLR,,0.00,WeatherDisplay:10.37,2013-07-08 19:00:00,
2013-07-08 22:04:00,83.7,46.1,29.74,NNW,338,6.0,6.0,27,0.00,CLR,,0.00,WeatherDisplay:10.37,2013-07-08 19:04:00,
2013-07-08 22:07:00,83.7,46.1,29.74,North,0,6.9,6.9,27,0.00,CLR,,0.00,WeatherDisplay:10.37,2013-07-08 19:07:00,
2013-07-08 22:10:00,83.7,46.1,29.74,NNW,344,6.0,7.0,27,0.00,CLR,,0.00,WeatherDisplay:10.37,2013-07-08 19:10:00,
2013-07-08 22:13:00,83.7,46.1,29.74,NW,315,6.9,6.9,27,0.00,CLR,,0.00,WeatherDisplay:10.37,2013-07-08 19:13:00,
2013-07-08 22:15:00,83.5,46.0,29.74,NW,315,6.9,6.9,27,0.00,CLR,,0.00,WeatherDisplay:10.37,2013-07-08 19:15:00,
2013-07-08 22:18:00,83.5,46.0,29.74,NNW,338,5.8,5.8,27,0.00,CLR,,0.00,WeatherDisplay:10.37,2013-07-08 19:18:00,
2013-07-08 22:22:00,83.5,46.0,29.74,NNE,22,5.4,5.4,27,0.00,CLR,,0.00,WeatherDisplay:10.37,2013-07-08 19:22:00,
2013-07-08 22:23:00,83.5,46.0,29.74,NNE,22,5.8,5.8,27,0.00,CLR,,0.00,WeatherDisplay:10.37,2013-07-08 19:23:00,
2013-07-08 22:28:00,83.5,46.0,29.74,NW,315,6.4,6.4,27,0.00,CLR,,0.00,WeatherDisplay:10.37,2013-07-08 19:28:00,
2013-07-08 22:33:00,83.3,45.8,29.74,NNW,338,4.6,4.6,27,0.00,CLR,,0.00,WeatherDisplay:10.37,2013-07-08 19:33:00,
2013-07-08 22:34:00,83.3,45.8,29.74,NNW,338,4.6,4.6,27,0.00,CLR,,0.00,WeatherDisplay:10.37,2013-07-08 19:34:00,
2013-07-08 22:36:00,83.3,45.8,29.74,NNW,338,9.2,9.2,27,0.00,CLR,,0.00,WeatherDisplay:10.37,2013-07-08 19:36:00,
2013-07-08 22:40:00,83.5,46.0,29.74,NNW,338,6.9,6.9,27,0.00,CLR,,0.00,WeatherDisplay:10.37,2013-07-08 19:40:00,
2013-07-08 22:41:00,83.3,45.8,29.74,NNW,338,5.8,5.8,27,0.00,CLR,,0.00,WeatherDisplay:10.37,2013-07-08 19:41:00,
2013-07-08 22:42:00,83.3,45.8,29.74,North,0,5.8,5.8,27,0.00,CLR,,0.00,WeatherDisplay:10.37,2013-07-08 19:42:00,
2013-07-08 22:49:00,83.3,45.8,29.74,NNW,338,6.9,6.9,27,0.00,CLR,,0.00,WeatherDisplay:10.37,2013-07-08 19:49:00,
2013-07-08 22:50:00,83.3,45.8,29.74,NNW,338,4.9,4.9,27,0.00,CLR,,0.00,WeatherDisplay:10.37,2013-07-08 19:50:00,
2013-07-08 22:54:00,83.3,45.8,29.74,NW,315,5.8,5.8,27,0.00,CLR,,0.00,WeatherDisplay:10.37,2013-07-08 19:54:00,
2013-07-08 22:55:00,83.3,45.8,29.74,NNW,338,5.8,5.8,27,0.00,CLR,,0.00,WeatherDisplay:10.37,2013-07-08 19:55:00,
2013-07-08 22:56:00,83.3,45.8,29.74,WNW,292,5.9,5.9,27,0.00,CLR,,0.00,WeatherDisplay:10.37,2013-07-08 19:56:00,
2013-07-08 23:00:00,83.1,45.7,29.74,North,0,3.1,3.1,27,0.00,CLR,,0.00,WeatherDisplay:10.37,2013-07-08 20:00:00,
2013-07-08 23:01:00,83.1,45.7,29.74,NW,315,3.5,3.5,27,0.00,CLR,,0.00,WeatherDisplay:10.37,2013-07-08 20:01:00,
2013-07-08 23:02:00,83.1,45.7,29.74,NW,315,4.0,4.0,27,0.00,CLR,,0.00,WeatherDisplay:10.37,2013-07-08 20:02:00,
2013-07-08 23:06:00,83.1,45.7,29.74,WNW,292,6.9,6.9,27,0.00,CLR,,0.00,WeatherDisplay:10.37,2013-07-08 20:06:00,
2013-07-08 23:09:00,83.1,45.7,29.74,WNW,292,5.8,5.8,27,0.00,CLR,,0.00,WeatherDisplay:10.37,2013-07-08 20:09:00,
2013-07-08 23:11:00,82.9,45.5,29.74,NNW,338,5.4,5.4,27,0.00,CLR,,0.00,WeatherDisplay:10.37,2013-07-08 20:11:00,
2013-07-08 23:14:00,82.9,48.3,29.74,NNW,338,7.1,7.1,30,0.00,CLR,,0.00,WeatherDisplay:10.37,2013-07-08 20:14:00,
2013-07-08 23:15:00,82.9,48.3,29.74,NW,307,3.0,7.0,30,0.00,CLR,,0.00,WeatherDisplay:10.37,2013-07-08 20:15:00,
2013-07-08 23:19:00,82.8,48.2,29.74,WNW,292,6.9,6.9,30,0.00,CLR,,0.00,WeatherDisplay:10.37,2013-07-08 20:19:00,
2013-07-08 23:20:00,82.8,48.2,29.74,WNW,292,4.6,4.6,30,0.00,CLR,,0.00,WeatherDisplay:10.37,2013-07-08 20:20:00,
2013-07-08 23:25:00,82.8,48.2,29.74,WNW,292,4.6,4.6,30,0.00,CLR,,0.00,WeatherDisplay:10.37,2013-07-08 20:25:00,
2013-07-08 23:27:00,82.8,48.2,29.74,NNW,338,8.1,8.1,30,0.00,CLR,,0.00,WeatherDisplay:10.37,2013-07-08 20:27:00,
2013-07-08 23:32:00,82.8,48.2,29.74,NNW,338,6.9,6.9,30,0.00,CLR,,0.00,WeatherDisplay:10.37,2013-07-08 20:32:00,
2013-07-08 23:33:00,82.8,48.2,29.74,NNW,338,8.1,8.1,30,0.00,CLR,,0.00,WeatherDisplay:10.37,2013-07-08 20:33:00,
2013-07-08 23:34:00,82.8,48.2,29.74,NNW,338,9.2,9.2,30,0.00,CLR,,0.00,WeatherDisplay:10.37,2013-07-08 20:34:00,
2013-07-08 23:38:00,82.6,48.0,29.74,NW,315,4.6,4.6,30,0.00,CLR,,0.00,WeatherDisplay:10.37,2013-07-08 20:38:00,
2013-07-08 23:39:00,82.6,48.0,29.74,NW,315,4.6,4.7,30,0.00,CLR,,0.00,WeatherDisplay:10.37,2013-07-08 20:39:00,
2013-07-08 23:40:00,82.6,48.0,29.74,NNW,338,5.8,5.8,30,0.00,CLR,,0.00,WeatherDisplay:10.37,2013-07-08 20:40:00,
2013-07-08 23:43:00,82.6,48.0,29.74,NNW,338,10.4,10.4,30,0.00,CLR,,0.00,WeatherDisplay:10.37,2013-07-08 20:43:00,
2013-07-08 23:44:00,82.6,48.0,29.74,NNW,338,6.9,6.9,30,0.00,CLR,,0.00,WeatherDisplay:10.37,2013-07-08 20:44:00,
2013-07-08 23:45:00,82.4,47.8,29.74,NNW,338,4.6,4.6,30,0.00,CLR,,0.00,WeatherDisplay:10.37,2013-07-08 20:45:00,
2013-07-08 23:49:00,82.4,47.8,29.74,NNW,338,5.8,5.8,30,0.00,CLR,,0.00,WeatherDisplay:10.37,2013-07-08 20:49:00,
2013-07-08 23:50:00,82.4,47.8,29.74,NW,325,6.0,6.0,30,0.00,CLR,,0.00,WeatherDisplay:10.37,2013-07-08 20:50:00,
2013-07-08 23:51:00,82.4,47.8,29.74,NNW,338,3.5,3.5,30,0.00,CLR,,0.00,WeatherDisplay:10.37,2013-07-08 20:51:00,
2013-07-08 23:55:00,82.2,47.7,29.74,NW,315,4.6,4.6,30,0.00,CLR,,0.00,WeatherDisplay:10.37,2013-07-08 20:55:00,
2013-07-08 23:56:00,82.2,47.7,29.74,North,0,5.8,5.8,30,0.00,CLR,,0.00,WeatherDisplay:10.37,2013-07-08 20:56:00,